<?xml version="1.0" encoding="UTF-8" standalone="no" ?>
<gpx xmlns="http://www.topografix.com/GPX/1/1" xmlns:xsi="http://www.w3.org/2001/XMLSchema-instance" xsi:schemaLocation="http://www.topografix.com/GPX/1/1 http://www.topografix.com/GPX/1/1/gpx.xsd" version="1.1" creator="VisuGPX - https://www.visugpx.com">
  <metadata>
    <name>Mont Granier</name>
    <desc><![CDATA[Mont Granier en boucle]]></desc>
  </metadata>
  <trk>
    <name><![CDATA[granier]]></name>
    <desc><![CDATA[<h1>OruxMaps</h1><br /><hr align="center" width="480" style="height: 2px; width: 517px"/><h2>Nom: granier</h2><br /><p>Temps de départ: 09/22/2013 10:07</p><p>Temps d'arrivée: 09/22/2013 16:23</p><p>Distance: 13,9km (06:16)</p><p>Temps déplacement: 04:08</p><p>Vitesse moyenne: 2,2km/h</p><p>Vitesse moyenne: 3,4km/h</p><p>Vitess Max.: 7,3km/h</p><p>Altitude minimale: 1091m</p><p>Altitude maximale: 1937m</p><p>Vitesse d'élévation: 302,4m/h</p><p>Vitesse de descente: -469,3m/h</p><p>Gain Altitude: 1083m</p><p>Perte Altitude: -1105m</p><p>Temps d'élévation: 03:34</p><p>Temps de descente: 02:21</p><hr align="center" width="480" style="height: 2px; width: 517px"/>]]></desc>
    <trkseg>
      <trkpt lat="45.44225" lon="5.90589">
        <ele>1110.96</ele>
        <time>2013-09-22T08:07:09Z</time>
      </trkpt>
      <trkpt lat="45.4421" lon="5.90574">
        <ele>1110.6</ele>
        <time>2013-09-22T08:10:21Z</time>
      </trkpt>
      <trkpt lat="45.44194" lon="5.90562">
        <ele>1105.01</ele>
        <time>2013-09-22T08:10:36Z</time>
      </trkpt>
      <trkpt lat="45.44176" lon="5.90569">
        <ele>1102.3</ele>
        <time>2013-09-22T08:10:56Z</time>
      </trkpt>
      <trkpt lat="45.4416" lon="5.90582">
        <ele>1104.14</ele>
        <time>2013-09-22T08:11:18Z</time>
      </trkpt>
      <trkpt lat="45.44141" lon="5.90586">
        <ele>1109.43</ele>
        <time>2013-09-22T08:11:39Z</time>
      </trkpt>
      <trkpt lat="45.44124" lon="5.90595">
        <ele>1109.73</ele>
        <time>2013-09-22T08:11:55Z</time>
      </trkpt>
      <trkpt lat="45.44108" lon="5.90611">
        <ele>1112.66</ele>
        <time>2013-09-22T08:12:14Z</time>
      </trkpt>
      <trkpt lat="45.44101" lon="5.90636">
        <ele>1113.69</ele>
        <time>2013-09-22T08:12:34Z</time>
      </trkpt>
      <trkpt lat="45.44098" lon="5.90663">
        <ele>1115.14</ele>
        <time>2013-09-22T08:12:54Z</time>
      </trkpt>
      <trkpt lat="45.44088" lon="5.90687">
        <ele>1118.61</ele>
        <time>2013-09-22T08:13:13Z</time>
      </trkpt>
      <trkpt lat="45.44082" lon="5.90711">
        <ele>1120.68</ele>
        <time>2013-09-22T08:13:27Z</time>
      </trkpt>
      <trkpt lat="45.44071" lon="5.90734">
        <ele>1122.13</ele>
        <time>2013-09-22T08:13:43Z</time>
      </trkpt>
      <trkpt lat="45.44069" lon="5.9076">
        <ele>1125.63</ele>
        <time>2013-09-22T08:14:10Z</time>
      </trkpt>
      <trkpt lat="45.44079" lon="5.90782">
        <ele>1129.29</ele>
        <time>2013-09-22T08:14:28Z</time>
      </trkpt>
      <trkpt lat="45.4409" lon="5.90805">
        <ele>1131.58</ele>
        <time>2013-09-22T08:14:41Z</time>
      </trkpt>
      <trkpt lat="45.44096" lon="5.90829">
        <ele>1132.86</ele>
        <time>2013-09-22T08:14:56Z</time>
      </trkpt>
      <trkpt lat="45.44095" lon="5.90855">
        <ele>1134.61</ele>
        <time>2013-09-22T08:15:10Z</time>
      </trkpt>
      <trkpt lat="45.44087" lon="5.90878">
        <ele>1137.14</ele>
        <time>2013-09-22T08:15:29Z</time>
      </trkpt>
      <trkpt lat="45.4408" lon="5.90903">
        <ele>1144.37</ele>
        <time>2013-09-22T08:15:53Z</time>
      </trkpt>
      <trkpt lat="45.44076" lon="5.90928">
        <ele>1147.9</ele>
        <time>2013-09-22T08:16:02Z</time>
      </trkpt>
      <trkpt lat="45.4406" lon="5.90942">
        <ele>1152.16</ele>
        <time>2013-09-22T08:16:20Z</time>
      </trkpt>
      <trkpt lat="45.44041" lon="5.90938">
        <ele>1153.42</ele>
        <time>2013-09-22T08:16:30Z</time>
      </trkpt>
      <trkpt lat="45.4403" lon="5.90958">
        <ele>1156.85</ele>
        <time>2013-09-22T08:17:00Z</time>
      </trkpt>
      <trkpt lat="45.44033" lon="5.90983">
        <ele>1156.67</ele>
        <time>2013-09-22T08:17:15Z</time>
      </trkpt>
      <trkpt lat="45.44035" lon="5.91009">
        <ele>1156.55</ele>
        <time>2013-09-22T08:17:28Z</time>
      </trkpt>
      <trkpt lat="45.44036" lon="5.91036">
        <ele>1154</ele>
        <time>2013-09-22T08:17:42Z</time>
      </trkpt>
      <trkpt lat="45.44044" lon="5.9106">
        <ele>1152.8</ele>
        <time>2013-09-22T08:18:00Z</time>
      </trkpt>
      <trkpt lat="45.44047" lon="5.91086">
        <ele>1154.42</ele>
        <time>2013-09-22T08:18:15Z</time>
      </trkpt>
      <trkpt lat="45.44042" lon="5.91113">
        <ele>1155.21</ele>
        <time>2013-09-22T08:18:28Z</time>
      </trkpt>
      <trkpt lat="45.44037" lon="5.91138">
        <ele>1153.19</ele>
        <time>2013-09-22T08:18:53Z</time>
      </trkpt>
      <trkpt lat="45.44027" lon="5.91162">
        <ele>1151.13</ele>
        <time>2013-09-22T08:19:05Z</time>
      </trkpt>
      <trkpt lat="45.44017" lon="5.91183">
        <ele>1148.94</ele>
        <time>2013-09-22T08:19:25Z</time>
      </trkpt>
      <trkpt lat="45.44" lon="5.91193">
        <ele>1155.52</ele>
        <time>2013-09-22T08:19:53Z</time>
      </trkpt>
      <trkpt lat="45.43996" lon="5.91218">
        <ele>1155.49</ele>
        <time>2013-09-22T08:20:24Z</time>
      </trkpt>
      <trkpt lat="45.44009" lon="5.91235">
        <ele>1159.41</ele>
        <time>2013-09-22T08:20:55Z</time>
      </trkpt>
      <trkpt lat="45.44021" lon="5.91256">
        <ele>1165.08</ele>
        <time>2013-09-22T08:21:22Z</time>
      </trkpt>
      <trkpt lat="45.44037" lon="5.91268">
        <ele>1167.72</ele>
        <time>2013-09-22T08:21:43Z</time>
      </trkpt>
      <trkpt lat="45.44055" lon="5.91273">
        <ele>1174.25</ele>
        <time>2013-09-22T08:22:16Z</time>
      </trkpt>
      <trkpt lat="45.44072" lon="5.9128">
        <ele>1179.09</ele>
        <time>2013-09-22T08:22:37Z</time>
      </trkpt>
      <trkpt lat="45.44082" lon="5.91303">
        <ele>1182.88</ele>
        <time>2013-09-22T08:22:57Z</time>
      </trkpt>
      <trkpt lat="45.4409" lon="5.91326">
        <ele>1186.61</ele>
        <time>2013-09-22T08:23:25Z</time>
      </trkpt>
      <trkpt lat="45.44107" lon="5.91336">
        <ele>1188.56</ele>
        <time>2013-09-22T08:23:50Z</time>
      </trkpt>
      <trkpt lat="45.44121" lon="5.91352">
        <ele>1188.36</ele>
        <time>2013-09-22T08:24:13Z</time>
      </trkpt>
      <trkpt lat="45.44137" lon="5.91366">
        <ele>1187.88</ele>
        <time>2013-09-22T08:24:35Z</time>
      </trkpt>
      <trkpt lat="45.44155" lon="5.91363">
        <ele>1182.6</ele>
        <time>2013-09-22T08:25:00Z</time>
      </trkpt>
      <trkpt lat="45.44172" lon="5.9135">
        <ele>1181.41</ele>
        <time>2013-09-22T08:25:12Z</time>
      </trkpt>
      <trkpt lat="45.44187" lon="5.91334">
        <ele>1182.83</ele>
        <time>2013-09-22T08:25:24Z</time>
      </trkpt>
      <trkpt lat="45.442" lon="5.91316">
        <ele>1185.53</ele>
        <time>2013-09-22T08:25:42Z</time>
      </trkpt>
      <trkpt lat="45.44214" lon="5.91298">
        <ele>1188.43</ele>
        <time>2013-09-22T08:26:02Z</time>
      </trkpt>
      <trkpt lat="45.4423" lon="5.91285">
        <ele>1191.85</ele>
        <time>2013-09-22T08:26:20Z</time>
      </trkpt>
      <trkpt lat="45.44248" lon="5.9128">
        <ele>1195.54</ele>
        <time>2013-09-22T08:26:43Z</time>
      </trkpt>
      <trkpt lat="45.44266" lon="5.91273">
        <ele>1201.89</ele>
        <time>2013-09-22T08:27:06Z</time>
      </trkpt>
      <trkpt lat="45.44284" lon="5.91264">
        <ele>1205.49</ele>
        <time>2013-09-22T08:27:22Z</time>
      </trkpt>
      <trkpt lat="45.44301" lon="5.91274">
        <ele>1209.26</ele>
        <time>2013-09-22T08:27:46Z</time>
      </trkpt>
      <trkpt lat="45.4432" lon="5.91276">
        <ele>1211.14</ele>
        <time>2013-09-22T08:28:05Z</time>
      </trkpt>
      <trkpt lat="45.44337" lon="5.91272">
        <ele>1211.94</ele>
        <time>2013-09-22T08:28:19Z</time>
      </trkpt>
      <trkpt lat="45.44356" lon="5.91272">
        <ele>1211.87</ele>
        <time>2013-09-22T08:28:37Z</time>
      </trkpt>
      <trkpt lat="45.44371" lon="5.91286">
        <ele>1213.72</ele>
        <time>2013-09-22T08:29:00Z</time>
      </trkpt>
      <trkpt lat="45.4439" lon="5.91286">
        <ele>1214.01</ele>
        <time>2013-09-22T08:29:23Z</time>
      </trkpt>
      <trkpt lat="45.44385" lon="5.91311">
        <ele>1219.55</ele>
        <time>2013-09-22T08:30:12Z</time>
      </trkpt>
      <trkpt lat="45.44372" lon="5.91329">
        <ele>1228.53</ele>
        <time>2013-09-22T08:30:48Z</time>
      </trkpt>
      <trkpt lat="45.44359" lon="5.91347">
        <ele>1238.56</ele>
        <time>2013-09-22T08:31:16Z</time>
      </trkpt>
      <trkpt lat="45.44346" lon="5.91365">
        <ele>1246.61</ele>
        <time>2013-09-22T08:31:45Z</time>
      </trkpt>
      <trkpt lat="45.44336" lon="5.91389">
        <ele>1250.37</ele>
        <time>2013-09-22T08:32:15Z</time>
      </trkpt>
      <trkpt lat="45.44327" lon="5.91411">
        <ele>1258.06</ele>
        <time>2013-09-22T08:32:54Z</time>
      </trkpt>
      <trkpt lat="45.44333" lon="5.91435">
        <ele>1262.48</ele>
        <time>2013-09-22T08:33:31Z</time>
      </trkpt>
      <trkpt lat="45.44332" lon="5.91461">
        <ele>1270.12</ele>
        <time>2013-09-22T08:34:08Z</time>
      </trkpt>
      <trkpt lat="45.44325" lon="5.91486">
        <ele>1275.61</ele>
        <time>2013-09-22T08:34:38Z</time>
      </trkpt>
      <trkpt lat="45.44313" lon="5.91505">
        <ele>1283.21</ele>
        <time>2013-09-22T08:35:12Z</time>
      </trkpt>
      <trkpt lat="45.44302" lon="5.91526">
        <ele>1292.32</ele>
        <time>2013-09-22T08:35:51Z</time>
      </trkpt>
      <trkpt lat="45.44289" lon="5.91544">
        <ele>1303.02</ele>
        <time>2013-09-22T08:36:36Z</time>
      </trkpt>
      <trkpt lat="45.44278" lon="5.91566">
        <ele>1310.3</ele>
        <time>2013-09-22T08:37:10Z</time>
      </trkpt>
      <trkpt lat="45.44266" lon="5.91585">
        <ele>1317.71</ele>
        <time>2013-09-22T08:37:42Z</time>
      </trkpt>
      <trkpt lat="45.44253" lon="5.91604">
        <ele>1326.19</ele>
        <time>2013-09-22T08:38:25Z</time>
      </trkpt>
      <trkpt lat="45.44255" lon="5.9163">
        <ele>1331.15</ele>
        <time>2013-09-22T08:39:00Z</time>
      </trkpt>
      <trkpt lat="45.44273" lon="5.91635">
        <ele>1332.39</ele>
        <time>2013-09-22T08:39:42Z</time>
      </trkpt>
      <trkpt lat="45.44291" lon="5.91631">
        <ele>1335.84</ele>
        <time>2013-09-22T08:40:21Z</time>
      </trkpt>
      <trkpt lat="45.44308" lon="5.91639">
        <ele>1344.19</ele>
        <time>2013-09-22T08:41:09Z</time>
      </trkpt>
      <trkpt lat="45.44311" lon="5.91664">
        <ele>1352.13</ele>
        <time>2013-09-22T08:42:06Z</time>
      </trkpt>
      <trkpt lat="45.44317" lon="5.91688">
        <ele>1368.22</ele>
        <time>2013-09-22T08:43:19Z</time>
      </trkpt>
      <trkpt lat="45.44334" lon="5.91698">
        <ele>1376.41</ele>
        <time>2013-09-22T08:44:08Z</time>
      </trkpt>
      <trkpt lat="45.4434" lon="5.91723">
        <ele>1384.65</ele>
        <time>2013-09-22T08:44:58Z</time>
      </trkpt>
      <trkpt lat="45.44346" lon="5.91747">
        <ele>1399.18</ele>
        <time>2013-09-22T08:46:26Z</time>
      </trkpt>
      <trkpt lat="45.44343" lon="5.91773">
        <ele>1411.5</ele>
        <time>2013-09-22T08:47:28Z</time>
      </trkpt>
      <trkpt lat="45.44337" lon="5.91797">
        <ele>1418.65</ele>
        <time>2013-09-22T08:48:15Z</time>
      </trkpt>
      <trkpt lat="45.44329" lon="5.91821">
        <ele>1425.07</ele>
        <time>2013-09-22T08:48:42Z</time>
      </trkpt>
      <trkpt lat="45.44315" lon="5.9184">
        <ele>1431.58</ele>
        <time>2013-09-22T08:49:25Z</time>
      </trkpt>
      <trkpt lat="45.44301" lon="5.91857">
        <ele>1439.15</ele>
        <time>2013-09-22T08:49:58Z</time>
      </trkpt>
      <trkpt lat="45.44283" lon="5.91857">
        <ele>1443.21</ele>
        <time>2013-09-22T08:50:42Z</time>
      </trkpt>
      <trkpt lat="45.44271" lon="5.91835">
        <ele>1458.7</ele>
        <time>2013-09-22T08:51:28Z</time>
      </trkpt>
      <trkpt lat="45.44261" lon="5.91813">
        <ele>1461.79</ele>
        <time>2013-09-22T08:52:07Z</time>
      </trkpt>
      <trkpt lat="45.44245" lon="5.91799">
        <ele>1463.37</ele>
        <time>2013-09-22T08:52:35Z</time>
      </trkpt>
      <trkpt lat="45.44227" lon="5.91803">
        <ele>1489.3</ele>
        <time>2013-09-22T08:54:43Z</time>
      </trkpt>
      <trkpt lat="45.44229" lon="5.91829">
        <ele>1501.9</ele>
        <time>2013-09-22T08:55:39Z</time>
      </trkpt>
      <trkpt lat="45.44214" lon="5.91845">
        <ele>1509.57</ele>
        <time>2013-09-22T08:56:30Z</time>
      </trkpt>
      <trkpt lat="45.44203" lon="5.91865">
        <ele>1516.42</ele>
        <time>2013-09-22T08:57:05Z</time>
      </trkpt>
      <trkpt lat="45.44187" lon="5.91879">
        <ele>1522.8</ele>
        <time>2013-09-22T08:57:33Z</time>
      </trkpt>
      <trkpt lat="45.4418" lon="5.91903">
        <ele>1527.36</ele>
        <time>2013-09-22T08:58:14Z</time>
      </trkpt>
      <trkpt lat="45.44181" lon="5.91929">
        <ele>1529.55</ele>
        <time>2013-09-22T09:00:01Z</time>
      </trkpt>
      <trkpt lat="45.4418" lon="5.91955">
        <ele>1530.95</ele>
        <time>2013-09-22T09:00:22Z</time>
      </trkpt>
      <trkpt lat="45.4418" lon="5.91981">
        <ele>1532.45</ele>
        <time>2013-09-22T09:00:41Z</time>
      </trkpt>
      <trkpt lat="45.44175" lon="5.92007">
        <ele>1533.95</ele>
        <time>2013-09-22T09:01:14Z</time>
      </trkpt>
      <trkpt lat="45.44179" lon="5.92033">
        <ele>1534.51</ele>
        <time>2013-09-22T09:01:36Z</time>
      </trkpt>
      <trkpt lat="45.44178" lon="5.92058">
        <ele>1535.46</ele>
        <time>2013-09-22T09:01:56Z</time>
      </trkpt>
      <trkpt lat="45.44182" lon="5.92085">
        <ele>1535.54</ele>
        <time>2013-09-22T09:02:13Z</time>
      </trkpt>
      <trkpt lat="45.44184" lon="5.92111">
        <ele>1535.71</ele>
        <time>2013-09-22T09:02:26Z</time>
      </trkpt>
      <trkpt lat="45.44187" lon="5.92137">
        <ele>1535.63</ele>
        <time>2013-09-22T09:02:41Z</time>
      </trkpt>
      <trkpt lat="45.44199" lon="5.92157">
        <ele>1534.59</ele>
        <time>2013-09-22T09:02:59Z</time>
      </trkpt>
      <trkpt lat="45.44213" lon="5.92175">
        <ele>1533.77</ele>
        <time>2013-09-22T09:04:07Z</time>
      </trkpt>
      <trkpt lat="45.44209" lon="5.92201">
        <ele>1533.89</ele>
        <time>2013-09-22T09:04:36Z</time>
      </trkpt>
      <trkpt lat="45.44211" lon="5.92227">
        <ele>1534.52</ele>
        <time>2013-09-22T09:05:19Z</time>
      </trkpt>
      <trkpt lat="45.44213" lon="5.92254">
        <ele>1533.05</ele>
        <time>2013-09-22T09:05:35Z</time>
      </trkpt>
      <trkpt lat="45.44223" lon="5.92276">
        <ele>1531.33</ele>
        <time>2013-09-22T09:05:55Z</time>
      </trkpt>
      <trkpt lat="45.4423" lon="5.923">
        <ele>1530.33</ele>
        <time>2013-09-22T09:06:13Z</time>
      </trkpt>
      <trkpt lat="45.44238" lon="5.92323">
        <ele>1532.07</ele>
        <time>2013-09-22T09:06:35Z</time>
      </trkpt>
      <trkpt lat="45.44246" lon="5.92346">
        <ele>1533.21</ele>
        <time>2013-09-22T09:07:04Z</time>
      </trkpt>
      <trkpt lat="45.44257" lon="5.92369">
        <ele>1533.42</ele>
        <time>2013-09-22T09:07:12Z</time>
      </trkpt>
      <trkpt lat="45.44267" lon="5.9239">
        <ele>1534.78</ele>
        <time>2013-09-22T09:07:36Z</time>
      </trkpt>
      <trkpt lat="45.44285" lon="5.92401">
        <ele>1535.38</ele>
        <time>2013-09-22T09:07:55Z</time>
      </trkpt>
      <trkpt lat="45.44289" lon="5.92426">
        <ele>1536.19</ele>
        <time>2013-09-22T09:08:17Z</time>
      </trkpt>
      <trkpt lat="45.443" lon="5.92448">
        <ele>1535.65</ele>
        <time>2013-09-22T09:08:41Z</time>
      </trkpt>
      <trkpt lat="45.44313" lon="5.92468">
        <ele>1535.93</ele>
        <time>2013-09-22T09:08:54Z</time>
      </trkpt>
      <trkpt lat="45.44324" lon="5.9249">
        <ele>1536.03</ele>
        <time>2013-09-22T09:09:09Z</time>
      </trkpt>
      <trkpt lat="45.44335" lon="5.92512">
        <ele>1536.46</ele>
        <time>2013-09-22T09:09:24Z</time>
      </trkpt>
      <trkpt lat="45.44346" lon="5.92532">
        <ele>1537.17</ele>
        <time>2013-09-22T09:09:40Z</time>
      </trkpt>
      <trkpt lat="45.44356" lon="5.92555">
        <ele>1537.14</ele>
        <time>2013-09-22T09:09:55Z</time>
      </trkpt>
      <trkpt lat="45.44366" lon="5.92579">
        <ele>1538.05</ele>
        <time>2013-09-22T09:10:24Z</time>
      </trkpt>
      <trkpt lat="45.44379" lon="5.92598">
        <ele>1537.97</ele>
        <time>2013-09-22T09:10:33Z</time>
      </trkpt>
      <trkpt lat="45.4439" lon="5.92618">
        <ele>1537.8</ele>
        <time>2013-09-22T09:10:47Z</time>
      </trkpt>
      <trkpt lat="45.44402" lon="5.92638">
        <ele>1539.21</ele>
        <time>2013-09-22T09:11:06Z</time>
      </trkpt>
      <trkpt lat="45.44418" lon="5.92651">
        <ele>1539.74</ele>
        <time>2013-09-22T09:11:23Z</time>
      </trkpt>
      <trkpt lat="45.44431" lon="5.9267">
        <ele>1540.05</ele>
        <time>2013-09-22T09:11:41Z</time>
      </trkpt>
      <trkpt lat="45.44445" lon="5.92687">
        <ele>1540.13</ele>
        <time>2013-09-22T09:12:04Z</time>
      </trkpt>
      <trkpt lat="45.4446" lon="5.92703">
        <ele>1540.99</ele>
        <time>2013-09-22T09:12:17Z</time>
      </trkpt>
      <trkpt lat="45.44472" lon="5.92724">
        <ele>1541.33</ele>
        <time>2013-09-22T09:12:31Z</time>
      </trkpt>
      <trkpt lat="45.44482" lon="5.92747">
        <ele>1542.38</ele>
        <time>2013-09-22T09:12:48Z</time>
      </trkpt>
      <trkpt lat="45.44495" lon="5.92765">
        <ele>1542.37</ele>
        <time>2013-09-22T09:13:07Z</time>
      </trkpt>
      <trkpt lat="45.44514" lon="5.92768">
        <ele>1542.09</ele>
        <time>2013-09-22T09:13:24Z</time>
      </trkpt>
      <trkpt lat="45.44526" lon="5.92788">
        <ele>1542.42</ele>
        <time>2013-09-22T09:13:51Z</time>
      </trkpt>
      <trkpt lat="45.44544" lon="5.92799">
        <ele>1543.02</ele>
        <time>2013-09-22T09:14:07Z</time>
      </trkpt>
      <trkpt lat="45.44561" lon="5.92809">
        <ele>1544.04</ele>
        <time>2013-09-22T09:14:24Z</time>
      </trkpt>
      <trkpt lat="45.4458" lon="5.92816">
        <ele>1546.51</ele>
        <time>2013-09-22T09:14:48Z</time>
      </trkpt>
      <trkpt lat="45.44596" lon="5.92827">
        <ele>1551.97</ele>
        <time>2013-09-22T09:15:12Z</time>
      </trkpt>
      <trkpt lat="45.44614" lon="5.92834">
        <ele>1555.79</ele>
        <time>2013-09-22T09:15:37Z</time>
      </trkpt>
      <trkpt lat="45.4463" lon="5.92846">
        <ele>1561.99</ele>
        <time>2013-09-22T09:17:21Z</time>
      </trkpt>
      <trkpt lat="45.44648" lon="5.92845">
        <ele>1565.21</ele>
        <time>2013-09-22T09:18:06Z</time>
      </trkpt>
      <trkpt lat="45.44665" lon="5.92857">
        <ele>1565.13</ele>
        <time>2013-09-22T09:18:34Z</time>
      </trkpt>
      <trkpt lat="45.44683" lon="5.92864">
        <ele>1566.82</ele>
        <time>2013-09-22T09:18:54Z</time>
      </trkpt>
      <trkpt lat="45.447" lon="5.92873">
        <ele>1570.37</ele>
        <time>2013-09-22T09:19:24Z</time>
      </trkpt>
      <trkpt lat="45.44714" lon="5.92891">
        <ele>1571.79</ele>
        <time>2013-09-22T09:19:40Z</time>
      </trkpt>
      <trkpt lat="45.44728" lon="5.92909">
        <ele>1573.24</ele>
        <time>2013-09-22T09:19:55Z</time>
      </trkpt>
      <trkpt lat="45.44742" lon="5.92926">
        <ele>1573.88</ele>
        <time>2013-09-22T09:20:09Z</time>
      </trkpt>
      <trkpt lat="45.44754" lon="5.92946">
        <ele>1574.01</ele>
        <time>2013-09-22T09:20:24Z</time>
      </trkpt>
      <trkpt lat="45.44767" lon="5.92964">
        <ele>1574.8</ele>
        <time>2013-09-22T09:20:41Z</time>
      </trkpt>
      <trkpt lat="45.44778" lon="5.92985">
        <ele>1576.26</ele>
        <time>2013-09-22T09:20:58Z</time>
      </trkpt>
      <trkpt lat="45.4479" lon="5.93006">
        <ele>1576.91</ele>
        <time>2013-09-22T09:21:13Z</time>
      </trkpt>
      <trkpt lat="45.44803" lon="5.93025">
        <ele>1577.12</ele>
        <time>2013-09-22T09:21:30Z</time>
      </trkpt>
      <trkpt lat="45.44821" lon="5.93023">
        <ele>1577.1</ele>
        <time>2013-09-22T09:22:58Z</time>
      </trkpt>
      <trkpt lat="45.44831" lon="5.93044">
        <ele>1582.37</ele>
        <time>2013-09-22T09:23:37Z</time>
      </trkpt>
      <trkpt lat="45.44846" lon="5.93028">
        <ele>1590.44</ele>
        <time>2013-09-22T09:25:21Z</time>
      </trkpt>
      <trkpt lat="45.44862" lon="5.93015">
        <ele>1594.78</ele>
        <time>2013-09-22T09:26:32Z</time>
      </trkpt>
      <trkpt lat="45.44874" lon="5.93035">
        <ele>1598.68</ele>
        <time>2013-09-22T09:26:48Z</time>
      </trkpt>
      <trkpt lat="45.44883" lon="5.93059">
        <ele>1601.27</ele>
        <time>2013-09-22T09:27:01Z</time>
      </trkpt>
      <trkpt lat="45.44895" lon="5.93081">
        <ele>1602.62</ele>
        <time>2013-09-22T09:27:14Z</time>
      </trkpt>
      <trkpt lat="45.44906" lon="5.93101">
        <ele>1602.09</ele>
        <time>2013-09-22T09:27:26Z</time>
      </trkpt>
      <trkpt lat="45.44916" lon="5.93124">
        <ele>1600.2</ele>
        <time>2013-09-22T09:27:42Z</time>
      </trkpt>
      <trkpt lat="45.44923" lon="5.93149">
        <ele>1601.85</ele>
        <time>2013-09-22T09:28:17Z</time>
      </trkpt>
      <trkpt lat="45.44928" lon="5.93174">
        <ele>1603.95</ele>
        <time>2013-09-22T09:28:39Z</time>
      </trkpt>
      <trkpt lat="45.44939" lon="5.93195">
        <ele>1604.69</ele>
        <time>2013-09-22T09:28:59Z</time>
      </trkpt>
      <trkpt lat="45.44945" lon="5.93219">
        <ele>1611</ele>
        <time>2013-09-22T09:30:38Z</time>
      </trkpt>
      <trkpt lat="45.44962" lon="5.9321">
        <ele>1637.53</ele>
        <time>2013-09-22T09:34:04Z</time>
      </trkpt>
      <trkpt lat="45.44963" lon="5.93236">
        <ele>1639.44</ele>
        <time>2013-09-22T09:34:50Z</time>
      </trkpt>
      <trkpt lat="45.44979" lon="5.93249">
        <ele>1642.25</ele>
        <time>2013-09-22T09:38:12Z</time>
      </trkpt>
      <trkpt lat="45.44981" lon="5.93224">
        <ele>1650.25</ele>
        <time>2013-09-22T09:39:44Z</time>
      </trkpt>
      <trkpt lat="45.44982" lon="5.93198">
        <ele>1667.06</ele>
        <time>2013-09-22T09:41:39Z</time>
      </trkpt>
      <trkpt lat="45.45" lon="5.93204">
        <ele>1677</ele>
        <time>2013-09-22T09:42:50Z</time>
      </trkpt>
      <trkpt lat="45.44991" lon="5.93182">
        <ele>1683.47</ele>
        <time>2013-09-22T09:43:26Z</time>
      </trkpt>
      <trkpt lat="45.44982" lon="5.93159">
        <ele>1688.44</ele>
        <time>2013-09-22T09:43:57Z</time>
      </trkpt>
      <trkpt lat="45.44974" lon="5.93135">
        <ele>1693.59</ele>
        <time>2013-09-22T09:44:30Z</time>
      </trkpt>
      <trkpt lat="45.44959" lon="5.93122">
        <ele>1695.32</ele>
        <time>2013-09-22T09:44:55Z</time>
      </trkpt>
      <trkpt lat="45.44943" lon="5.93108">
        <ele>1696.77</ele>
        <time>2013-09-22T09:45:21Z</time>
      </trkpt>
      <trkpt lat="45.44938" lon="5.93083">
        <ele>1702.98</ele>
        <time>2013-09-22T09:46:16Z</time>
      </trkpt>
      <trkpt lat="45.44949" lon="5.93062">
        <ele>1713.64</ele>
        <time>2013-09-22T09:47:21Z</time>
      </trkpt>
      <trkpt lat="45.4495" lon="5.93037">
        <ele>1724.69</ele>
        <time>2013-09-22T09:48:22Z</time>
      </trkpt>
      <trkpt lat="45.44943" lon="5.93013">
        <ele>1733.31</ele>
        <time>2013-09-22T09:49:19Z</time>
      </trkpt>
      <trkpt lat="45.44935" lon="5.9299">
        <ele>1741.95</ele>
        <time>2013-09-22T09:50:09Z</time>
      </trkpt>
      <trkpt lat="45.4494" lon="5.92965">
        <ele>1753.26</ele>
        <time>2013-09-22T09:51:27Z</time>
      </trkpt>
      <trkpt lat="45.44958" lon="5.92965">
        <ele>1759.29</ele>
        <time>2013-09-22T09:52:05Z</time>
      </trkpt>
      <trkpt lat="45.44977" lon="5.92963">
        <ele>1762.37</ele>
        <time>2013-09-22T09:52:27Z</time>
      </trkpt>
      <trkpt lat="45.44995" lon="5.92965">
        <ele>1766.33</ele>
        <time>2013-09-22T09:52:57Z</time>
      </trkpt>
      <trkpt lat="45.45013" lon="5.92963">
        <ele>1768.59</ele>
        <time>2013-09-22T09:53:21Z</time>
      </trkpt>
      <trkpt lat="45.4503" lon="5.92973">
        <ele>1772.3</ele>
        <time>2013-09-22T09:54:01Z</time>
      </trkpt>
      <trkpt lat="45.45048" lon="5.92979">
        <ele>1774.56</ele>
        <time>2013-09-22T09:54:27Z</time>
      </trkpt>
      <trkpt lat="45.45066" lon="5.92975">
        <ele>1775.27</ele>
        <time>2013-09-22T09:54:49Z</time>
      </trkpt>
      <trkpt lat="45.45084" lon="5.92974">
        <ele>1776</ele>
        <time>2013-09-22T09:55:08Z</time>
      </trkpt>
      <trkpt lat="45.45098" lon="5.92956">
        <ele>1777.19</ele>
        <time>2013-09-22T09:55:34Z</time>
      </trkpt>
      <trkpt lat="45.45109" lon="5.92936">
        <ele>1777.32</ele>
        <time>2013-09-22T09:55:50Z</time>
      </trkpt>
      <trkpt lat="45.45123" lon="5.92918">
        <ele>1775.84</ele>
        <time>2013-09-22T09:56:13Z</time>
      </trkpt>
      <trkpt lat="45.45136" lon="5.92897">
        <ele>1773.75</ele>
        <time>2013-09-22T09:56:41Z</time>
      </trkpt>
      <trkpt lat="45.4515" lon="5.92879">
        <ele>1772.07</ele>
        <time>2013-09-22T09:56:57Z</time>
      </trkpt>
      <trkpt lat="45.45162" lon="5.92861">
        <ele>1771.71</ele>
        <time>2013-09-22T09:57:29Z</time>
      </trkpt>
      <trkpt lat="45.45177" lon="5.92845">
        <ele>1770.61</ele>
        <time>2013-09-22T09:57:50Z</time>
      </trkpt>
      <trkpt lat="45.45184" lon="5.9282">
        <ele>1769.34</ele>
        <time>2013-09-22T09:58:07Z</time>
      </trkpt>
      <trkpt lat="45.4518" lon="5.92795">
        <ele>1768.39</ele>
        <time>2013-09-22T09:58:27Z</time>
      </trkpt>
      <trkpt lat="45.45179" lon="5.92769">
        <ele>1769.29</ele>
        <time>2013-09-22T09:58:48Z</time>
      </trkpt>
      <trkpt lat="45.45167" lon="5.9275">
        <ele>1770.94</ele>
        <time>2013-09-22T09:59:12Z</time>
      </trkpt>
      <trkpt lat="45.45168" lon="5.92723">
        <ele>1771.34</ele>
        <time>2013-09-22T09:59:29Z</time>
      </trkpt>
      <trkpt lat="45.45167" lon="5.92697">
        <ele>1771.52</ele>
        <time>2013-09-22T09:59:51Z</time>
      </trkpt>
      <trkpt lat="45.45153" lon="5.9268">
        <ele>1774.1</ele>
        <time>2013-09-22T10:00:21Z</time>
      </trkpt>
      <trkpt lat="45.45148" lon="5.92655">
        <ele>1777.93</ele>
        <time>2013-09-22T10:00:55Z</time>
      </trkpt>
      <trkpt lat="45.45145" lon="5.92629">
        <ele>1781.17</ele>
        <time>2013-09-22T10:01:21Z</time>
      </trkpt>
      <trkpt lat="45.45149" lon="5.92655">
        <ele>1783.45</ele>
        <time>2013-09-22T10:02:35Z</time>
      </trkpt>
      <trkpt lat="45.45154" lon="5.9268">
        <ele>1785.18</ele>
        <time>2013-09-22T10:03:11Z</time>
      </trkpt>
      <trkpt lat="45.45166" lon="5.92699">
        <ele>1784.14</ele>
        <time>2013-09-22T10:03:36Z</time>
      </trkpt>
      <trkpt lat="45.45169" lon="5.92727">
        <ele>1783.1</ele>
        <time>2013-09-22T10:03:59Z</time>
      </trkpt>
      <trkpt lat="45.45169" lon="5.92752">
        <ele>1781.55</ele>
        <time>2013-09-22T10:04:13Z</time>
      </trkpt>
      <trkpt lat="45.45178" lon="5.92775">
        <ele>1779.92</ele>
        <time>2013-09-22T10:04:47Z</time>
      </trkpt>
      <trkpt lat="45.45188" lon="5.92797">
        <ele>1778.1</ele>
        <time>2013-09-22T10:05:17Z</time>
      </trkpt>
      <trkpt lat="45.45198" lon="5.92818">
        <ele>1773.62</ele>
        <time>2013-09-22T10:05:59Z</time>
      </trkpt>
      <trkpt lat="45.45214" lon="5.9283">
        <ele>1768.24</ele>
        <time>2013-09-22T10:06:31Z</time>
      </trkpt>
      <trkpt lat="45.4523" lon="5.92841">
        <ele>1761.63</ele>
        <time>2013-09-22T10:07:06Z</time>
      </trkpt>
      <trkpt lat="45.45248" lon="5.92851">
        <ele>1759.2</ele>
        <time>2013-09-22T10:07:19Z</time>
      </trkpt>
      <trkpt lat="45.45262" lon="5.92868">
        <ele>1755.49</ele>
        <time>2013-09-22T10:07:39Z</time>
      </trkpt>
      <trkpt lat="45.45278" lon="5.92856">
        <ele>1749.88</ele>
        <time>2013-09-22T10:08:11Z</time>
      </trkpt>
      <trkpt lat="45.45297" lon="5.92856">
        <ele>1745.75</ele>
        <time>2013-09-22T10:08:33Z</time>
      </trkpt>
      <trkpt lat="45.45315" lon="5.92861">
        <ele>1743.23</ele>
        <time>2013-09-22T10:08:52Z</time>
      </trkpt>
      <trkpt lat="45.45333" lon="5.92858">
        <ele>1739.7</ele>
        <time>2013-09-22T10:09:13Z</time>
      </trkpt>
      <trkpt lat="45.4535" lon="5.92851">
        <ele>1737.22</ele>
        <time>2013-09-22T10:09:35Z</time>
      </trkpt>
      <trkpt lat="45.45367" lon="5.92842">
        <ele>1735.01</ele>
        <time>2013-09-22T10:09:52Z</time>
      </trkpt>
      <trkpt lat="45.45385" lon="5.92837">
        <ele>1732.43</ele>
        <time>2013-09-22T10:10:08Z</time>
      </trkpt>
      <trkpt lat="45.45404" lon="5.92837">
        <ele>1730.47</ele>
        <time>2013-09-22T10:10:24Z</time>
      </trkpt>
      <trkpt lat="45.45422" lon="5.9284">
        <ele>1728.95</ele>
        <time>2013-09-22T10:10:41Z</time>
      </trkpt>
      <trkpt lat="45.45439" lon="5.92852">
        <ele>1727.31</ele>
        <time>2013-09-22T10:10:58Z</time>
      </trkpt>
      <trkpt lat="45.45457" lon="5.92859">
        <ele>1725.95</ele>
        <time>2013-09-22T10:11:15Z</time>
      </trkpt>
      <trkpt lat="45.45473" lon="5.92871">
        <ele>1724.02</ele>
        <time>2013-09-22T10:11:31Z</time>
      </trkpt>
      <trkpt lat="45.4549" lon="5.92879">
        <ele>1722.26</ele>
        <time>2013-09-22T10:11:44Z</time>
      </trkpt>
      <trkpt lat="45.45505" lon="5.92894">
        <ele>1720.39</ele>
        <time>2013-09-22T10:11:59Z</time>
      </trkpt>
      <trkpt lat="45.45523" lon="5.92903">
        <ele>1718.95</ele>
        <time>2013-09-22T10:12:14Z</time>
      </trkpt>
      <trkpt lat="45.45539" lon="5.92914">
        <ele>1716.69</ele>
        <time>2013-09-22T10:12:31Z</time>
      </trkpt>
      <trkpt lat="45.45553" lon="5.9293">
        <ele>1714.4</ele>
        <time>2013-09-22T10:12:45Z</time>
      </trkpt>
      <trkpt lat="45.45566" lon="5.9295">
        <ele>1711.8</ele>
        <time>2013-09-22T10:13:03Z</time>
      </trkpt>
      <trkpt lat="45.45581" lon="5.92965">
        <ele>1709.03</ele>
        <time>2013-09-22T10:13:19Z</time>
      </trkpt>
      <trkpt lat="45.45589" lon="5.92988">
        <ele>1704.63</ele>
        <time>2013-09-22T10:13:40Z</time>
      </trkpt>
      <trkpt lat="45.45597" lon="5.93013">
        <ele>1701.19</ele>
        <time>2013-09-22T10:13:54Z</time>
      </trkpt>
      <trkpt lat="45.45606" lon="5.93037">
        <ele>1698.77</ele>
        <time>2013-09-22T10:14:10Z</time>
      </trkpt>
      <trkpt lat="45.45621" lon="5.93054">
        <ele>1697.41</ele>
        <time>2013-09-22T10:14:27Z</time>
      </trkpt>
      <trkpt lat="45.45639" lon="5.93063">
        <ele>1695.86</ele>
        <time>2013-09-22T10:14:42Z</time>
      </trkpt>
      <trkpt lat="45.45657" lon="5.93067">
        <ele>1694.67</ele>
        <time>2013-09-22T10:14:57Z</time>
      </trkpt>
      <trkpt lat="45.45676" lon="5.93074">
        <ele>1692.55</ele>
        <time>2013-09-22T10:15:11Z</time>
      </trkpt>
      <trkpt lat="45.45694" lon="5.93076">
        <ele>1689.95</ele>
        <time>2013-09-22T10:15:26Z</time>
      </trkpt>
      <trkpt lat="45.45708" lon="5.93092">
        <ele>1688.17</ele>
        <time>2013-09-22T10:15:40Z</time>
      </trkpt>
      <trkpt lat="45.45715" lon="5.93116">
        <ele>1686.26</ele>
        <time>2013-09-22T10:15:57Z</time>
      </trkpt>
      <trkpt lat="45.45722" lon="5.93141">
        <ele>1683.42</ele>
        <time>2013-09-22T10:16:11Z</time>
      </trkpt>
      <trkpt lat="45.45734" lon="5.9316">
        <ele>1679.79</ele>
        <time>2013-09-22T10:16:27Z</time>
      </trkpt>
      <trkpt lat="45.45744" lon="5.93183">
        <ele>1674.83</ele>
        <time>2013-09-22T10:16:46Z</time>
      </trkpt>
      <trkpt lat="45.45761" lon="5.93195">
        <ele>1671.56</ele>
        <time>2013-09-22T10:17:04Z</time>
      </trkpt>
      <trkpt lat="45.45775" lon="5.93214">
        <ele>1667.33</ele>
        <time>2013-09-22T10:17:29Z</time>
      </trkpt>
      <trkpt lat="45.45788" lon="5.93232">
        <ele>1664.76</ele>
        <time>2013-09-22T10:17:42Z</time>
      </trkpt>
      <trkpt lat="45.45801" lon="5.9325">
        <ele>1660.9</ele>
        <time>2013-09-22T10:17:59Z</time>
      </trkpt>
      <trkpt lat="45.45812" lon="5.93273">
        <ele>1657.82</ele>
        <time>2013-09-22T10:18:15Z</time>
      </trkpt>
      <trkpt lat="45.45817" lon="5.93298">
        <ele>1654.97</ele>
        <time>2013-09-22T10:18:35Z</time>
      </trkpt>
      <trkpt lat="45.45817" lon="5.93323">
        <ele>1652.76</ele>
        <time>2013-09-22T10:18:57Z</time>
      </trkpt>
      <trkpt lat="45.45823" lon="5.93348">
        <ele>1651.95</ele>
        <time>2013-09-22T10:19:16Z</time>
      </trkpt>
      <trkpt lat="45.45838" lon="5.93363">
        <ele>1650.19</ele>
        <time>2013-09-22T10:19:33Z</time>
      </trkpt>
      <trkpt lat="45.45844" lon="5.93388">
        <ele>1647.73</ele>
        <time>2013-09-22T10:19:55Z</time>
      </trkpt>
      <trkpt lat="45.45858" lon="5.93404">
        <ele>1646.19</ele>
        <time>2013-09-22T10:20:10Z</time>
      </trkpt>
      <trkpt lat="45.45865" lon="5.93429">
        <ele>1644.05</ele>
        <time>2013-09-22T10:20:28Z</time>
      </trkpt>
      <trkpt lat="45.45873" lon="5.93453">
        <ele>1640.75</ele>
        <time>2013-09-22T10:20:49Z</time>
      </trkpt>
      <trkpt lat="45.45888" lon="5.93467">
        <ele>1642.12</ele>
        <time>2013-09-22T10:22:05Z</time>
      </trkpt>
      <trkpt lat="45.45894" lon="5.93493">
        <ele>1639.44</ele>
        <time>2013-09-22T10:22:35Z</time>
      </trkpt>
      <trkpt lat="45.45897" lon="5.93519">
        <ele>1637.48</ele>
        <time>2013-09-22T10:22:56Z</time>
      </trkpt>
      <trkpt lat="45.45907" lon="5.93543">
        <ele>1637.82</ele>
        <time>2013-09-22T10:23:14Z</time>
      </trkpt>
      <trkpt lat="45.4592" lon="5.93563">
        <ele>1639.29</ele>
        <time>2013-09-22T10:23:33Z</time>
      </trkpt>
      <trkpt lat="45.45937" lon="5.93572">
        <ele>1641.03</ele>
        <time>2013-09-22T10:23:51Z</time>
      </trkpt>
      <trkpt lat="45.45951" lon="5.93555">
        <ele>1643.14</ele>
        <time>2013-09-22T10:24:21Z</time>
      </trkpt>
      <trkpt lat="45.45967" lon="5.93539">
        <ele>1641.49</ele>
        <time>2013-09-22T10:24:44Z</time>
      </trkpt>
      <trkpt lat="45.45985" lon="5.9353">
        <ele>1639.18</ele>
        <time>2013-09-22T10:25:01Z</time>
      </trkpt>
      <trkpt lat="45.46003" lon="5.93525">
        <ele>1637.07</ele>
        <time>2013-09-22T10:25:17Z</time>
      </trkpt>
      <trkpt lat="45.46021" lon="5.93532">
        <ele>1636.16</ele>
        <time>2013-09-22T10:25:29Z</time>
      </trkpt>
      <trkpt lat="45.46038" lon="5.93522">
        <ele>1634.77</ele>
        <time>2013-09-22T10:25:48Z</time>
      </trkpt>
      <trkpt lat="45.46055" lon="5.9351">
        <ele>1633.54</ele>
        <time>2013-09-22T10:26:12Z</time>
      </trkpt>
      <trkpt lat="45.46073" lon="5.9351">
        <ele>1631.25</ele>
        <time>2013-09-22T10:26:32Z</time>
      </trkpt>
      <trkpt lat="45.4609" lon="5.93518">
        <ele>1631.09</ele>
        <time>2013-09-22T10:27:10Z</time>
      </trkpt>
      <trkpt lat="45.461" lon="5.9354">
        <ele>1633.85</ele>
        <time>2013-09-22T10:27:32Z</time>
      </trkpt>
      <trkpt lat="45.46113" lon="5.93558">
        <ele>1636.96</ele>
        <time>2013-09-22T10:27:59Z</time>
      </trkpt>
      <trkpt lat="45.46122" lon="5.93581">
        <ele>1638.64</ele>
        <time>2013-09-22T10:28:21Z</time>
      </trkpt>
      <trkpt lat="45.46135" lon="5.93601">
        <ele>1637.8</ele>
        <time>2013-09-22T10:28:50Z</time>
      </trkpt>
      <trkpt lat="45.46153" lon="5.93598">
        <ele>1636.83</ele>
        <time>2013-09-22T10:29:10Z</time>
      </trkpt>
      <trkpt lat="45.46172" lon="5.93595">
        <ele>1635.24</ele>
        <time>2013-09-22T10:29:45Z</time>
      </trkpt>
      <trkpt lat="45.46188" lon="5.93584">
        <ele>1633.22</ele>
        <time>2013-09-22T10:30:07Z</time>
      </trkpt>
      <trkpt lat="45.46206" lon="5.93578">
        <ele>1629.43</ele>
        <time>2013-09-22T10:30:26Z</time>
      </trkpt>
      <trkpt lat="45.46223" lon="5.93585">
        <ele>1629.45</ele>
        <time>2013-09-22T10:31:01Z</time>
      </trkpt>
      <trkpt lat="45.46241" lon="5.93577">
        <ele>1629.71</ele>
        <time>2013-09-22T10:33:04Z</time>
      </trkpt>
      <trkpt lat="45.46252" lon="5.93556">
        <ele>1633.33</ele>
        <time>2013-09-22T10:33:57Z</time>
      </trkpt>
      <trkpt lat="45.46241" lon="5.93535">
        <ele>1636.16</ele>
        <time>2013-09-22T10:34:21Z</time>
      </trkpt>
      <trkpt lat="45.46225" lon="5.93522">
        <ele>1637.78</ele>
        <time>2013-09-22T10:34:53Z</time>
      </trkpt>
      <trkpt lat="45.46214" lon="5.93502">
        <ele>1642.38</ele>
        <time>2013-09-22T10:35:33Z</time>
      </trkpt>
      <trkpt lat="45.46215" lon="5.93476">
        <ele>1647.55</ele>
        <time>2013-09-22T10:36:09Z</time>
      </trkpt>
      <trkpt lat="45.46214" lon="5.9345">
        <ele>1650.17</ele>
        <time>2013-09-22T10:36:50Z</time>
      </trkpt>
      <trkpt lat="45.46201" lon="5.93431">
        <ele>1656.03</ele>
        <time>2013-09-22T10:37:24Z</time>
      </trkpt>
      <trkpt lat="45.46189" lon="5.93411">
        <ele>1663.75</ele>
        <time>2013-09-22T10:37:54Z</time>
      </trkpt>
      <trkpt lat="45.4619" lon="5.93384">
        <ele>1668.09</ele>
        <time>2013-09-22T10:38:41Z</time>
      </trkpt>
      <trkpt lat="45.46189" lon="5.93359">
        <ele>1673.3</ele>
        <time>2013-09-22T10:39:30Z</time>
      </trkpt>
      <trkpt lat="45.4619" lon="5.93333">
        <ele>1681.23</ele>
        <time>2013-09-22T10:40:34Z</time>
      </trkpt>
      <trkpt lat="45.46195" lon="5.93308">
        <ele>1693.24</ele>
        <time>2013-09-22T10:41:17Z</time>
      </trkpt>
      <trkpt lat="45.46213" lon="5.93311">
        <ele>1711.41</ele>
        <time>2013-09-22T10:43:32Z</time>
      </trkpt>
      <trkpt lat="45.46231" lon="5.93315">
        <ele>1721.83</ele>
        <time>2013-09-22T10:44:47Z</time>
      </trkpt>
      <trkpt lat="45.46231" lon="5.93289">
        <ele>1739.36</ele>
        <time>2013-09-22T11:21:24Z</time>
      </trkpt>
      <trkpt lat="45.46239" lon="5.93266">
        <ele>1747.69</ele>
        <time>2013-09-22T11:22:34Z</time>
      </trkpt>
      <trkpt lat="45.46255" lon="5.93256">
        <ele>1752.21</ele>
        <time>2013-09-22T11:23:06Z</time>
      </trkpt>
      <trkpt lat="45.46266" lon="5.93236">
        <ele>1757.41</ele>
        <time>2013-09-22T11:23:44Z</time>
      </trkpt>
      <trkpt lat="45.46284" lon="5.93243">
        <ele>1761.46</ele>
        <time>2013-09-22T11:24:41Z</time>
      </trkpt>
      <trkpt lat="45.46299" lon="5.93258">
        <ele>1762.49</ele>
        <time>2013-09-22T11:24:55Z</time>
      </trkpt>
      <trkpt lat="45.46314" lon="5.93275">
        <ele>1762.85</ele>
        <time>2013-09-22T11:25:09Z</time>
      </trkpt>
      <trkpt lat="45.46332" lon="5.9328">
        <ele>1763.26</ele>
        <time>2013-09-22T11:25:30Z</time>
      </trkpt>
      <trkpt lat="45.46349" lon="5.93289">
        <ele>1765.06</ele>
        <time>2013-09-22T11:26:10Z</time>
      </trkpt>
      <trkpt lat="45.46364" lon="5.93303">
        <ele>1769.27</ele>
        <time>2013-09-22T11:26:41Z</time>
      </trkpt>
      <trkpt lat="45.46375" lon="5.93281">
        <ele>1773.71</ele>
        <time>2013-09-22T11:27:04Z</time>
      </trkpt>
      <trkpt lat="45.46385" lon="5.93261">
        <ele>1776.99</ele>
        <time>2013-09-22T11:27:30Z</time>
      </trkpt>
      <trkpt lat="45.46399" lon="5.93244">
        <ele>1779.33</ele>
        <time>2013-09-22T11:28:07Z</time>
      </trkpt>
      <trkpt lat="45.46411" lon="5.93223">
        <ele>1780.05</ele>
        <time>2013-09-22T11:28:23Z</time>
      </trkpt>
      <trkpt lat="45.46421" lon="5.93201">
        <ele>1781.4</ele>
        <time>2013-09-22T11:28:38Z</time>
      </trkpt>
      <trkpt lat="45.46436" lon="5.93186">
        <ele>1783.16</ele>
        <time>2013-09-22T11:28:53Z</time>
      </trkpt>
      <trkpt lat="45.4645" lon="5.93168">
        <ele>1785.52</ele>
        <time>2013-09-22T11:29:09Z</time>
      </trkpt>
      <trkpt lat="45.46465" lon="5.93152">
        <ele>1785.95</ele>
        <time>2013-09-22T11:29:27Z</time>
      </trkpt>
      <trkpt lat="45.46481" lon="5.93138">
        <ele>1787.55</ele>
        <time>2013-09-22T11:29:45Z</time>
      </trkpt>
      <trkpt lat="45.465" lon="5.93139">
        <ele>1790.56</ele>
        <time>2013-09-22T11:30:05Z</time>
      </trkpt>
      <trkpt lat="45.46518" lon="5.93132">
        <ele>1794.26</ele>
        <time>2013-09-22T11:30:36Z</time>
      </trkpt>
      <trkpt lat="45.46535" lon="5.93122">
        <ele>1796.51</ele>
        <time>2013-09-22T11:30:55Z</time>
      </trkpt>
      <trkpt lat="45.46549" lon="5.93103">
        <ele>1795.53</ele>
        <time>2013-09-22T11:31:24Z</time>
      </trkpt>
      <trkpt lat="45.46568" lon="5.93104">
        <ele>1797.33</ele>
        <time>2013-09-22T11:31:42Z</time>
      </trkpt>
      <trkpt lat="45.46586" lon="5.93106">
        <ele>1799.1</ele>
        <time>2013-09-22T11:32:01Z</time>
      </trkpt>
      <trkpt lat="45.46603" lon="5.93113">
        <ele>1801.44</ele>
        <time>2013-09-22T11:32:31Z</time>
      </trkpt>
      <trkpt lat="45.4662" lon="5.93099">
        <ele>1804.44</ele>
        <time>2013-09-22T11:33:09Z</time>
      </trkpt>
      <trkpt lat="45.46637" lon="5.93089">
        <ele>1805.88</ele>
        <time>2013-09-22T11:33:24Z</time>
      </trkpt>
      <trkpt lat="45.46655" lon="5.93084">
        <ele>1808.93</ele>
        <time>2013-09-22T11:33:41Z</time>
      </trkpt>
      <trkpt lat="45.46673" lon="5.93085">
        <ele>1812.25</ele>
        <time>2013-09-22T11:34:06Z</time>
      </trkpt>
      <trkpt lat="45.46691" lon="5.93078">
        <ele>1813.84</ele>
        <time>2013-09-22T11:35:49Z</time>
      </trkpt>
      <trkpt lat="45.46706" lon="5.93064">
        <ele>1816.51</ele>
        <time>2013-09-22T11:36:16Z</time>
      </trkpt>
      <trkpt lat="45.46725" lon="5.93062">
        <ele>1819.36</ele>
        <time>2013-09-22T11:36:42Z</time>
      </trkpt>
      <trkpt lat="45.46742" lon="5.93054">
        <ele>1822.21</ele>
        <time>2013-09-22T11:37:08Z</time>
      </trkpt>
      <trkpt lat="45.46753" lon="5.93032">
        <ele>1824.52</ele>
        <time>2013-09-22T11:37:33Z</time>
      </trkpt>
      <trkpt lat="45.46756" lon="5.93006">
        <ele>1826.24</ele>
        <time>2013-09-22T11:37:57Z</time>
      </trkpt>
      <trkpt lat="45.4677" lon="5.9299">
        <ele>1828.92</ele>
        <time>2013-09-22T11:38:16Z</time>
      </trkpt>
      <trkpt lat="45.46781" lon="5.92968">
        <ele>1831.17</ele>
        <time>2013-09-22T11:38:39Z</time>
      </trkpt>
      <trkpt lat="45.46795" lon="5.92951">
        <ele>1832.85</ele>
        <time>2013-09-22T11:39:03Z</time>
      </trkpt>
      <trkpt lat="45.46806" lon="5.9293">
        <ele>1834.83</ele>
        <time>2013-09-22T11:39:25Z</time>
      </trkpt>
      <trkpt lat="45.46797" lon="5.92908">
        <ele>1836.59</ele>
        <time>2013-09-22T11:39:49Z</time>
      </trkpt>
      <trkpt lat="45.46792" lon="5.92882">
        <ele>1840.58</ele>
        <time>2013-09-22T11:40:34Z</time>
      </trkpt>
      <trkpt lat="45.46789" lon="5.92856">
        <ele>1844.1</ele>
        <time>2013-09-22T11:41:24Z</time>
      </trkpt>
      <trkpt lat="45.46781" lon="5.92833">
        <ele>1850.57</ele>
        <time>2013-09-22T11:42:48Z</time>
      </trkpt>
      <trkpt lat="45.46772" lon="5.9281">
        <ele>1851.63</ele>
        <time>2013-09-22T11:43:18Z</time>
      </trkpt>
      <trkpt lat="45.46767" lon="5.92786">
        <ele>1855.04</ele>
        <time>2013-09-22T11:43:50Z</time>
      </trkpt>
      <trkpt lat="45.46755" lon="5.92767">
        <ele>1858.21</ele>
        <time>2013-09-22T11:44:25Z</time>
      </trkpt>
      <trkpt lat="45.46765" lon="5.92745">
        <ele>1862.92</ele>
        <time>2013-09-22T11:44:50Z</time>
      </trkpt>
      <trkpt lat="45.46763" lon="5.9272">
        <ele>1867.42</ele>
        <time>2013-09-22T11:45:27Z</time>
      </trkpt>
      <trkpt lat="45.46764" lon="5.92694">
        <ele>1875.02</ele>
        <time>2013-09-22T11:46:04Z</time>
      </trkpt>
      <trkpt lat="45.46762" lon="5.92668">
        <ele>1885.23</ele>
        <time>2013-09-22T11:47:18Z</time>
      </trkpt>
      <trkpt lat="45.4676" lon="5.92642">
        <ele>1890.09</ele>
        <time>2013-09-22T11:47:42Z</time>
      </trkpt>
      <trkpt lat="45.4676" lon="5.92615">
        <ele>1894.19</ele>
        <time>2013-09-22T11:48:02Z</time>
      </trkpt>
      <trkpt lat="45.46752" lon="5.92593">
        <ele>1897.38</ele>
        <time>2013-09-22T11:48:25Z</time>
      </trkpt>
      <trkpt lat="45.46742" lon="5.9257">
        <ele>1899.38</ele>
        <time>2013-09-22T11:48:44Z</time>
      </trkpt>
      <trkpt lat="45.46732" lon="5.92549">
        <ele>1900.4</ele>
        <time>2013-09-22T11:48:57Z</time>
      </trkpt>
      <trkpt lat="45.46724" lon="5.92525">
        <ele>1901.82</ele>
        <time>2013-09-22T11:49:15Z</time>
      </trkpt>
      <trkpt lat="45.4672" lon="5.92498">
        <ele>1902.22</ele>
        <time>2013-09-22T11:49:31Z</time>
      </trkpt>
      <trkpt lat="45.46734" lon="5.92481">
        <ele>1901.7</ele>
        <time>2013-09-22T11:51:55Z</time>
      </trkpt>
      <trkpt lat="45.46745" lon="5.92459">
        <ele>1900.83</ele>
        <time>2013-09-22T11:52:10Z</time>
      </trkpt>
      <trkpt lat="45.46735" lon="5.92481">
        <ele>1896.3</ele>
        <time>2013-09-22T12:08:17Z</time>
      </trkpt>
      <trkpt lat="45.46719" lon="5.92494">
        <ele>1896.75</ele>
        <time>2013-09-22T12:08:38Z</time>
      </trkpt>
      <trkpt lat="45.46701" lon="5.92501">
        <ele>1897.7</ele>
        <time>2013-09-22T12:09:00Z</time>
      </trkpt>
      <trkpt lat="45.46682" lon="5.92506">
        <ele>1898.41</ele>
        <time>2013-09-22T12:09:14Z</time>
      </trkpt>
      <trkpt lat="45.46664" lon="5.92505">
        <ele>1898.98</ele>
        <time>2013-09-22T12:09:28Z</time>
      </trkpt>
      <trkpt lat="45.46648" lon="5.92518">
        <ele>1898.47</ele>
        <time>2013-09-22T12:09:46Z</time>
      </trkpt>
      <trkpt lat="45.46634" lon="5.92534">
        <ele>1898.91</ele>
        <time>2013-09-22T12:10:09Z</time>
      </trkpt>
      <trkpt lat="45.46622" lon="5.92554">
        <ele>1902.55</ele>
        <time>2013-09-22T12:10:35Z</time>
      </trkpt>
      <trkpt lat="45.46604" lon="5.9255">
        <ele>1907.73</ele>
        <time>2013-09-22T12:11:29Z</time>
      </trkpt>
      <trkpt lat="45.46591" lon="5.92532">
        <ele>1909.71</ele>
        <time>2013-09-22T12:11:48Z</time>
      </trkpt>
      <trkpt lat="45.46577" lon="5.92514">
        <ele>1911.29</ele>
        <time>2013-09-22T12:12:05Z</time>
      </trkpt>
      <trkpt lat="45.46558" lon="5.92512">
        <ele>1911.92</ele>
        <time>2013-09-22T12:12:20Z</time>
      </trkpt>
      <trkpt lat="45.4654" lon="5.92507">
        <ele>1913.07</ele>
        <time>2013-09-22T12:12:50Z</time>
      </trkpt>
      <trkpt lat="45.46521" lon="5.92509">
        <ele>1915.5</ele>
        <time>2013-09-22T12:13:14Z</time>
      </trkpt>
      <trkpt lat="45.46504" lon="5.92499">
        <ele>1918.72</ele>
        <time>2013-09-22T12:13:31Z</time>
      </trkpt>
      <trkpt lat="45.46487" lon="5.9251">
        <ele>1922.2</ele>
        <time>2013-09-22T12:13:58Z</time>
      </trkpt>
      <trkpt lat="45.46469" lon="5.92507">
        <ele>1927.14</ele>
        <time>2013-09-22T12:15:08Z</time>
      </trkpt>
      <trkpt lat="45.46457" lon="5.92528">
        <ele>1927.42</ele>
        <time>2013-09-22T12:15:26Z</time>
      </trkpt>
      <trkpt lat="45.46439" lon="5.92538">
        <ele>1927.44</ele>
        <time>2013-09-22T12:15:40Z</time>
      </trkpt>
      <trkpt lat="45.46421" lon="5.92545">
        <ele>1926.58</ele>
        <time>2013-09-22T12:15:56Z</time>
      </trkpt>
      <trkpt lat="45.4641" lon="5.92566">
        <ele>1922.01</ele>
        <time>2013-09-22T12:16:51Z</time>
      </trkpt>
      <trkpt lat="45.46392" lon="5.92572">
        <ele>1916.48</ele>
        <time>2013-09-22T12:17:24Z</time>
      </trkpt>
      <trkpt lat="45.46373" lon="5.92572">
        <ele>1913.35</ele>
        <time>2013-09-22T12:17:40Z</time>
      </trkpt>
      <trkpt lat="45.46359" lon="5.92555">
        <ele>1910.08</ele>
        <time>2013-09-22T12:18:00Z</time>
      </trkpt>
      <trkpt lat="45.46345" lon="5.92537">
        <ele>1907.31</ele>
        <time>2013-09-22T12:18:14Z</time>
      </trkpt>
      <trkpt lat="45.46328" lon="5.92523">
        <ele>1905.11</ele>
        <time>2013-09-22T12:18:27Z</time>
      </trkpt>
      <trkpt lat="45.46311" lon="5.92514">
        <ele>1902.37</ele>
        <time>2013-09-22T12:18:43Z</time>
      </trkpt>
      <trkpt lat="45.46294" lon="5.92508">
        <ele>1898.81</ele>
        <time>2013-09-22T12:19:08Z</time>
      </trkpt>
      <trkpt lat="45.46277" lon="5.92499">
        <ele>1897.07</ele>
        <time>2013-09-22T12:19:17Z</time>
      </trkpt>
      <trkpt lat="45.46259" lon="5.92493">
        <ele>1895.19</ele>
        <time>2013-09-22T12:19:28Z</time>
      </trkpt>
      <trkpt lat="45.46242" lon="5.92484">
        <ele>1894.19</ele>
        <time>2013-09-22T12:19:38Z</time>
      </trkpt>
      <trkpt lat="45.46222" lon="5.92481">
        <ele>1892.5</ele>
        <time>2013-09-22T12:19:51Z</time>
      </trkpt>
      <trkpt lat="45.46203" lon="5.92481">
        <ele>1891.82</ele>
        <time>2013-09-22T12:20:02Z</time>
      </trkpt>
      <trkpt lat="45.46185" lon="5.92475">
        <ele>1892.04</ele>
        <time>2013-09-22T12:20:18Z</time>
      </trkpt>
      <trkpt lat="45.46167" lon="5.92473">
        <ele>1892.28</ele>
        <time>2013-09-22T12:20:31Z</time>
      </trkpt>
      <trkpt lat="45.46148" lon="5.9247">
        <ele>1892.05</ele>
        <time>2013-09-22T12:20:44Z</time>
      </trkpt>
      <trkpt lat="45.4613" lon="5.92462">
        <ele>1892.14</ele>
        <time>2013-09-22T12:20:55Z</time>
      </trkpt>
      <trkpt lat="45.46112" lon="5.92455">
        <ele>1892.21</ele>
        <time>2013-09-22T12:21:08Z</time>
      </trkpt>
      <trkpt lat="45.46095" lon="5.92448">
        <ele>1891.7</ele>
        <time>2013-09-22T12:21:24Z</time>
      </trkpt>
      <trkpt lat="45.46077" lon="5.92439">
        <ele>1892.79</ele>
        <time>2013-09-22T12:21:45Z</time>
      </trkpt>
      <trkpt lat="45.46059" lon="5.92434">
        <ele>1892.27</ele>
        <time>2013-09-22T12:22:06Z</time>
      </trkpt>
      <trkpt lat="45.46041" lon="5.92437">
        <ele>1893.11</ele>
        <time>2013-09-22T12:22:24Z</time>
      </trkpt>
      <trkpt lat="45.46023" lon="5.92446">
        <ele>1894.36</ele>
        <time>2013-09-22T12:22:40Z</time>
      </trkpt>
      <trkpt lat="45.46007" lon="5.92459">
        <ele>1894.38</ele>
        <time>2013-09-22T12:22:59Z</time>
      </trkpt>
      <trkpt lat="45.45992" lon="5.92475">
        <ele>1893.15</ele>
        <time>2013-09-22T12:23:14Z</time>
      </trkpt>
      <trkpt lat="45.45974" lon="5.92472">
        <ele>1891.26</ele>
        <time>2013-09-22T12:23:37Z</time>
      </trkpt>
      <trkpt lat="45.45955" lon="5.92472">
        <ele>1890.08</ele>
        <time>2013-09-22T12:23:52Z</time>
      </trkpt>
      <trkpt lat="45.45938" lon="5.92461">
        <ele>1889.95</ele>
        <time>2013-09-22T12:24:11Z</time>
      </trkpt>
      <trkpt lat="45.4592" lon="5.92454">
        <ele>1890.66</ele>
        <time>2013-09-22T12:24:31Z</time>
      </trkpt>
      <trkpt lat="45.45906" lon="5.92436">
        <ele>1888.93</ele>
        <time>2013-09-22T12:25:00Z</time>
      </trkpt>
      <trkpt lat="45.45888" lon="5.92431">
        <ele>1887.26</ele>
        <time>2013-09-22T12:25:18Z</time>
      </trkpt>
      <trkpt lat="45.4587" lon="5.92427">
        <ele>1885.62</ele>
        <time>2013-09-22T12:25:36Z</time>
      </trkpt>
      <trkpt lat="45.45853" lon="5.92415">
        <ele>1883.77</ele>
        <time>2013-09-22T12:25:51Z</time>
      </trkpt>
      <trkpt lat="45.45836" lon="5.92402">
        <ele>1881.22</ele>
        <time>2013-09-22T12:26:08Z</time>
      </trkpt>
      <trkpt lat="45.45823" lon="5.92384">
        <ele>1879.78</ele>
        <time>2013-09-22T12:26:24Z</time>
      </trkpt>
      <trkpt lat="45.45808" lon="5.92368">
        <ele>1880.25</ele>
        <time>2013-09-22T12:26:39Z</time>
      </trkpt>
      <trkpt lat="45.4579" lon="5.92363">
        <ele>1880.4</ele>
        <time>2013-09-22T12:27:01Z</time>
      </trkpt>
      <trkpt lat="45.45772" lon="5.92361">
        <ele>1879.37</ele>
        <time>2013-09-22T12:27:34Z</time>
      </trkpt>
      <trkpt lat="45.45754" lon="5.92354">
        <ele>1878.63</ele>
        <time>2013-09-22T12:28:14Z</time>
      </trkpt>
      <trkpt lat="45.45736" lon="5.92359">
        <ele>1877.62</ele>
        <time>2013-09-22T12:28:43Z</time>
      </trkpt>
      <trkpt lat="45.45718" lon="5.92358">
        <ele>1871.57</ele>
        <time>2013-09-22T12:29:54Z</time>
      </trkpt>
      <trkpt lat="45.45702" lon="5.92372">
        <ele>1867.82</ele>
        <time>2013-09-22T12:30:19Z</time>
      </trkpt>
      <trkpt lat="45.45685" lon="5.92381">
        <ele>1864.67</ele>
        <time>2013-09-22T12:30:33Z</time>
      </trkpt>
      <trkpt lat="45.45667" lon="5.92389">
        <ele>1860.84</ele>
        <time>2013-09-22T12:30:50Z</time>
      </trkpt>
      <trkpt lat="45.45649" lon="5.92389">
        <ele>1856.8</ele>
        <time>2013-09-22T12:31:08Z</time>
      </trkpt>
      <trkpt lat="45.45632" lon="5.92382">
        <ele>1853.33</ele>
        <time>2013-09-22T12:31:30Z</time>
      </trkpt>
      <trkpt lat="45.45614" lon="5.92376">
        <ele>1850.87</ele>
        <time>2013-09-22T12:31:59Z</time>
      </trkpt>
      <trkpt lat="45.45596" lon="5.92375">
        <ele>1849.51</ele>
        <time>2013-09-22T12:32:20Z</time>
      </trkpt>
      <trkpt lat="45.45578" lon="5.92378">
        <ele>1845.91</ele>
        <time>2013-09-22T12:32:45Z</time>
      </trkpt>
      <trkpt lat="45.45563" lon="5.92363">
        <ele>1842.43</ele>
        <time>2013-09-22T12:33:04Z</time>
      </trkpt>
      <trkpt lat="45.45545" lon="5.92358">
        <ele>1840.19</ele>
        <time>2013-09-22T12:33:27Z</time>
      </trkpt>
      <trkpt lat="45.45528" lon="5.92349">
        <ele>1837.84</ele>
        <time>2013-09-22T12:33:46Z</time>
      </trkpt>
      <trkpt lat="45.45512" lon="5.92337">
        <ele>1836.67</ele>
        <time>2013-09-22T12:34:06Z</time>
      </trkpt>
      <trkpt lat="45.45501" lon="5.92317">
        <ele>1835.04</ele>
        <time>2013-09-22T12:34:28Z</time>
      </trkpt>
      <trkpt lat="45.45484" lon="5.92307">
        <ele>1834.83</ele>
        <time>2013-09-22T12:34:50Z</time>
      </trkpt>
      <trkpt lat="45.45473" lon="5.92286">
        <ele>1838.81</ele>
        <time>2013-09-22T12:36:11Z</time>
      </trkpt>
      <trkpt lat="45.45471" lon="5.9226">
        <ele>1845.11</ele>
        <time>2013-09-22T12:36:54Z</time>
      </trkpt>
      <trkpt lat="45.45452" lon="5.92264">
        <ele>1848.28</ele>
        <time>2013-09-22T12:37:20Z</time>
      </trkpt>
      <trkpt lat="45.45435" lon="5.92253">
        <ele>1850.11</ele>
        <time>2013-09-22T12:37:46Z</time>
      </trkpt>
      <trkpt lat="45.45418" lon="5.92245">
        <ele>1850.77</ele>
        <time>2013-09-22T12:38:08Z</time>
      </trkpt>
      <trkpt lat="45.45401" lon="5.92256">
        <ele>1851.52</ele>
        <time>2013-09-22T12:38:26Z</time>
      </trkpt>
      <trkpt lat="45.45387" lon="5.92237">
        <ele>1852.84</ele>
        <time>2013-09-22T12:38:44Z</time>
      </trkpt>
      <trkpt lat="45.45368" lon="5.92234">
        <ele>1851.94</ele>
        <time>2013-09-22T12:39:06Z</time>
      </trkpt>
      <trkpt lat="45.45357" lon="5.92255">
        <ele>1851.82</ele>
        <time>2013-09-22T12:40:07Z</time>
      </trkpt>
      <trkpt lat="45.45341" lon="5.92269">
        <ele>1854.32</ele>
        <time>2013-09-22T12:40:35Z</time>
      </trkpt>
      <trkpt lat="45.45323" lon="5.92269">
        <ele>1857.04</ele>
        <time>2013-09-22T12:41:59Z</time>
      </trkpt>
      <trkpt lat="45.45306" lon="5.92258">
        <ele>1859.2</ele>
        <time>2013-09-22T12:44:41Z</time>
      </trkpt>
      <trkpt lat="45.45293" lon="5.92241">
        <ele>1863.95</ele>
        <time>2013-09-22T12:45:13Z</time>
      </trkpt>
      <trkpt lat="45.45276" lon="5.9223">
        <ele>1866.65</ele>
        <time>2013-09-22T12:45:37Z</time>
      </trkpt>
      <trkpt lat="45.45258" lon="5.92222">
        <ele>1869.85</ele>
        <time>2013-09-22T12:46:02Z</time>
      </trkpt>
      <trkpt lat="45.45241" lon="5.92212">
        <ele>1871.44</ele>
        <time>2013-09-22T12:46:22Z</time>
      </trkpt>
      <trkpt lat="45.45225" lon="5.92199">
        <ele>1872.55</ele>
        <time>2013-09-22T12:46:45Z</time>
      </trkpt>
      <trkpt lat="45.45208" lon="5.92188">
        <ele>1875.85</ele>
        <time>2013-09-22T12:47:07Z</time>
      </trkpt>
      <trkpt lat="45.45189" lon="5.92182">
        <ele>1880.4</ele>
        <time>2013-09-22T12:47:33Z</time>
      </trkpt>
      <trkpt lat="45.45171" lon="5.92177">
        <ele>1883.4</ele>
        <time>2013-09-22T12:47:52Z</time>
      </trkpt>
      <trkpt lat="45.45153" lon="5.92175">
        <ele>1885.46</ele>
        <time>2013-09-22T12:48:13Z</time>
      </trkpt>
      <trkpt lat="45.45135" lon="5.92177">
        <ele>1886.51</ele>
        <time>2013-09-22T12:48:32Z</time>
      </trkpt>
      <trkpt lat="45.45117" lon="5.9217">
        <ele>1887.84</ele>
        <time>2013-09-22T12:48:48Z</time>
      </trkpt>
      <trkpt lat="45.45098" lon="5.9217">
        <ele>1889.78</ele>
        <time>2013-09-22T12:49:03Z</time>
      </trkpt>
      <trkpt lat="45.45079" lon="5.9217">
        <ele>1892.35</ele>
        <time>2013-09-22T12:49:20Z</time>
      </trkpt>
      <trkpt lat="45.45062" lon="5.92163">
        <ele>1895.47</ele>
        <time>2013-09-22T12:49:40Z</time>
      </trkpt>
      <trkpt lat="45.45048" lon="5.92146">
        <ele>1897.1</ele>
        <time>2013-09-22T12:49:59Z</time>
      </trkpt>
      <trkpt lat="45.45034" lon="5.9213">
        <ele>1899.11</ele>
        <time>2013-09-22T12:50:19Z</time>
      </trkpt>
      <trkpt lat="45.45017" lon="5.92118">
        <ele>1901.76</ele>
        <time>2013-09-22T12:50:37Z</time>
      </trkpt>
      <trkpt lat="45.45003" lon="5.92102">
        <ele>1904.62</ele>
        <time>2013-09-22T12:50:53Z</time>
      </trkpt>
      <trkpt lat="45.44985" lon="5.92095">
        <ele>1907.1</ele>
        <time>2013-09-22T12:51:11Z</time>
      </trkpt>
      <trkpt lat="45.44977" lon="5.92072">
        <ele>1909.2</ele>
        <time>2013-09-22T12:51:29Z</time>
      </trkpt>
      <trkpt lat="45.44959" lon="5.92065">
        <ele>1910.76</ele>
        <time>2013-09-22T12:51:42Z</time>
      </trkpt>
      <trkpt lat="45.4494" lon="5.9207">
        <ele>1912.77</ele>
        <time>2013-09-22T12:52:01Z</time>
      </trkpt>
      <trkpt lat="45.44924" lon="5.92058">
        <ele>1913.58</ele>
        <time>2013-09-22T12:52:15Z</time>
      </trkpt>
      <trkpt lat="45.44907" lon="5.92052">
        <ele>1914.35</ele>
        <time>2013-09-22T12:52:29Z</time>
      </trkpt>
      <trkpt lat="45.4489" lon="5.9204">
        <ele>1916.28</ele>
        <time>2013-09-22T12:52:46Z</time>
      </trkpt>
      <trkpt lat="45.44875" lon="5.92026">
        <ele>1918.49</ele>
        <time>2013-09-22T12:53:07Z</time>
      </trkpt>
      <trkpt lat="45.44861" lon="5.92008">
        <ele>1919.82</ele>
        <time>2013-09-22T12:53:26Z</time>
      </trkpt>
      <trkpt lat="45.44848" lon="5.91991">
        <ele>1921.28</ele>
        <time>2013-09-22T12:53:43Z</time>
      </trkpt>
      <trkpt lat="45.44831" lon="5.91978">
        <ele>1922.17</ele>
        <time>2013-09-22T12:53:57Z</time>
      </trkpt>
      <trkpt lat="45.44816" lon="5.91964">
        <ele>1923.89</ele>
        <time>2013-09-22T12:54:14Z</time>
      </trkpt>
      <trkpt lat="45.44798" lon="5.91962">
        <ele>1925.66</ele>
        <time>2013-09-22T12:54:32Z</time>
      </trkpt>
      <trkpt lat="45.44779" lon="5.91961">
        <ele>1927.6</ele>
        <time>2013-09-22T12:54:52Z</time>
      </trkpt>
      <trkpt lat="45.44761" lon="5.91962">
        <ele>1931.71</ele>
        <time>2013-09-22T12:56:14Z</time>
      </trkpt>
      <trkpt lat="45.4478" lon="5.91965">
        <ele>1937</ele>
        <time>2013-09-22T13:05:26Z</time>
      </trkpt>
      <trkpt lat="45.44799" lon="5.91965">
        <ele>1937.3</ele>
        <time>2013-09-22T13:05:37Z</time>
      </trkpt>
      <trkpt lat="45.44818" lon="5.91964">
        <ele>1937.7</ele>
        <time>2013-09-22T13:06:01Z</time>
      </trkpt>
      <trkpt lat="45.44833" lon="5.91978">
        <ele>1937.08</ele>
        <time>2013-09-22T13:06:16Z</time>
      </trkpt>
      <trkpt lat="45.44845" lon="5.91999">
        <ele>1935.33</ele>
        <time>2013-09-22T13:06:43Z</time>
      </trkpt>
      <trkpt lat="45.44854" lon="5.92022">
        <ele>1934.06</ele>
        <time>2013-09-22T13:06:56Z</time>
      </trkpt>
      <trkpt lat="45.44868" lon="5.92042">
        <ele>1932.7</ele>
        <time>2013-09-22T13:07:11Z</time>
      </trkpt>
      <trkpt lat="45.44877" lon="5.92065">
        <ele>1930.5</ele>
        <time>2013-09-22T13:07:35Z</time>
      </trkpt>
      <trkpt lat="45.44895" lon="5.92063">
        <ele>1928.09</ele>
        <time>2013-09-22T13:07:49Z</time>
      </trkpt>
      <trkpt lat="45.44912" lon="5.92071">
        <ele>1926.23</ele>
        <time>2013-09-22T13:08:02Z</time>
      </trkpt>
      <trkpt lat="45.44931" lon="5.9207">
        <ele>1924.94</ele>
        <time>2013-09-22T13:08:21Z</time>
      </trkpt>
      <trkpt lat="45.44948" lon="5.92083">
        <ele>1923.89</ele>
        <time>2013-09-22T13:08:39Z</time>
      </trkpt>
      <trkpt lat="45.4496" lon="5.92064">
        <ele>1921.84</ele>
        <time>2013-09-22T13:09:35Z</time>
      </trkpt>
      <trkpt lat="45.44978" lon="5.92073">
        <ele>1921.25</ele>
        <time>2013-09-22T13:09:49Z</time>
      </trkpt>
      <trkpt lat="45.44988" lon="5.92095">
        <ele>1920.97</ele>
        <time>2013-09-22T13:10:02Z</time>
      </trkpt>
      <trkpt lat="45.45006" lon="5.92103">
        <ele>1920.27</ele>
        <time>2013-09-22T13:10:15Z</time>
      </trkpt>
      <trkpt lat="45.4502" lon="5.92121">
        <ele>1919.39</ele>
        <time>2013-09-22T13:10:36Z</time>
      </trkpt>
      <trkpt lat="45.45035" lon="5.92135">
        <ele>1918.43</ele>
        <time>2013-09-22T13:10:49Z</time>
      </trkpt>
      <trkpt lat="45.45052" lon="5.92152">
        <ele>1917.76</ele>
        <time>2013-09-22T13:10:59Z</time>
      </trkpt>
      <trkpt lat="45.45069" lon="5.92164">
        <ele>1916.52</ele>
        <time>2013-09-22T13:11:12Z</time>
      </trkpt>
      <trkpt lat="45.45088" lon="5.92169">
        <ele>1914.08</ele>
        <time>2013-09-22T13:11:31Z</time>
      </trkpt>
      <trkpt lat="45.45106" lon="5.92168">
        <ele>1911.73</ele>
        <time>2013-09-22T13:11:43Z</time>
      </trkpt>
      <trkpt lat="45.45124" lon="5.92173">
        <ele>1909.47</ele>
        <time>2013-09-22T13:11:57Z</time>
      </trkpt>
      <trkpt lat="45.45142" lon="5.9218">
        <ele>1908.03</ele>
        <time>2013-09-22T13:12:09Z</time>
      </trkpt>
      <trkpt lat="45.45161" lon="5.92175">
        <ele>1906.69</ele>
        <time>2013-09-22T13:12:23Z</time>
      </trkpt>
      <trkpt lat="45.4518" lon="5.92178">
        <ele>1904.91</ele>
        <time>2013-09-22T13:12:38Z</time>
      </trkpt>
      <trkpt lat="45.45198" lon="5.92178">
        <ele>1902.09</ele>
        <time>2013-09-22T13:12:57Z</time>
      </trkpt>
      <trkpt lat="45.45216" lon="5.92188">
        <ele>1899.95</ele>
        <time>2013-09-22T13:13:11Z</time>
      </trkpt>
      <trkpt lat="45.4523" lon="5.92206">
        <ele>1896.99</ele>
        <time>2013-09-22T13:13:28Z</time>
      </trkpt>
      <trkpt lat="45.45248" lon="5.92216">
        <ele>1891.96</ele>
        <time>2013-09-22T13:13:51Z</time>
      </trkpt>
      <trkpt lat="45.45264" lon="5.92227">
        <ele>1889.39</ele>
        <time>2013-09-22T13:14:10Z</time>
      </trkpt>
      <trkpt lat="45.45282" lon="5.92237">
        <ele>1888.59</ele>
        <time>2013-09-22T13:14:34Z</time>
      </trkpt>
      <trkpt lat="45.45301" lon="5.92242">
        <ele>1886.68</ele>
        <time>2013-09-22T13:14:52Z</time>
      </trkpt>
      <trkpt lat="45.45316" lon="5.92257">
        <ele>1883.52</ele>
        <time>2013-09-22T13:15:12Z</time>
      </trkpt>
      <trkpt lat="45.45334" lon="5.92263">
        <ele>1878.03</ele>
        <time>2013-09-22T13:15:58Z</time>
      </trkpt>
      <trkpt lat="45.45352" lon="5.92264">
        <ele>1872.28</ele>
        <time>2013-09-22T13:16:26Z</time>
      </trkpt>
      <trkpt lat="45.45366" lon="5.92245">
        <ele>1867.66</ele>
        <time>2013-09-22T13:16:45Z</time>
      </trkpt>
      <trkpt lat="45.45352" lon="5.92227">
        <ele>1859.44</ele>
        <time>2013-09-22T13:17:20Z</time>
      </trkpt>
      <trkpt lat="45.45334" lon="5.92221">
        <ele>1858.28</ele>
        <time>2013-09-22T13:17:34Z</time>
      </trkpt>
      <trkpt lat="45.45324" lon="5.922">
        <ele>1852.91</ele>
        <time>2013-09-22T13:18:23Z</time>
      </trkpt>
      <trkpt lat="45.45307" lon="5.92191">
        <ele>1852.04</ele>
        <time>2013-09-22T13:18:38Z</time>
      </trkpt>
      <trkpt lat="45.4529" lon="5.9218">
        <ele>1851.44</ele>
        <time>2013-09-22T13:18:47Z</time>
      </trkpt>
      <trkpt lat="45.45273" lon="5.9217">
        <ele>1850.56</ele>
        <time>2013-09-22T13:19:01Z</time>
      </trkpt>
      <trkpt lat="45.45256" lon="5.92162">
        <ele>1850.33</ele>
        <time>2013-09-22T13:19:16Z</time>
      </trkpt>
      <trkpt lat="45.45238" lon="5.92152">
        <ele>1849.38</ele>
        <time>2013-09-22T13:19:44Z</time>
      </trkpt>
      <trkpt lat="45.45226" lon="5.92132">
        <ele>1848.99</ele>
        <time>2013-09-22T13:20:04Z</time>
      </trkpt>
      <trkpt lat="45.45222" lon="5.92104">
        <ele>1848.71</ele>
        <time>2013-09-22T13:20:39Z</time>
      </trkpt>
      <trkpt lat="45.45213" lon="5.92082">
        <ele>1849.22</ele>
        <time>2013-09-22T13:20:55Z</time>
      </trkpt>
      <trkpt lat="45.45206" lon="5.92057">
        <ele>1851</ele>
        <time>2013-09-22T13:21:13Z</time>
      </trkpt>
      <trkpt lat="45.45187" lon="5.92061">
        <ele>1851.4</ele>
        <time>2013-09-22T13:21:39Z</time>
      </trkpt>
      <trkpt lat="45.45171" lon="5.92072">
        <ele>1851.12</ele>
        <time>2013-09-22T13:22:14Z</time>
      </trkpt>
      <trkpt lat="45.45153" lon="5.92066">
        <ele>1842.62</ele>
        <time>2013-09-22T13:23:13Z</time>
      </trkpt>
      <trkpt lat="45.45139" lon="5.92049">
        <ele>1833.54</ele>
        <time>2013-09-22T13:23:56Z</time>
      </trkpt>
      <trkpt lat="45.45126" lon="5.92031">
        <ele>1829.84</ele>
        <time>2013-09-22T13:24:29Z</time>
      </trkpt>
      <trkpt lat="45.45115" lon="5.92011">
        <ele>1820.35</ele>
        <time>2013-09-22T13:25:12Z</time>
      </trkpt>
      <trkpt lat="45.45105" lon="5.91989">
        <ele>1812.31</ele>
        <time>2013-09-22T13:25:42Z</time>
      </trkpt>
      <trkpt lat="45.45115" lon="5.91966">
        <ele>1793.54</ele>
        <time>2013-09-22T13:27:13Z</time>
      </trkpt>
      <trkpt lat="45.45131" lon="5.91954">
        <ele>1784.8</ele>
        <time>2013-09-22T13:28:08Z</time>
      </trkpt>
      <trkpt lat="45.45136" lon="5.91929">
        <ele>1765.94</ele>
        <time>2013-09-22T13:29:35Z</time>
      </trkpt>
      <trkpt lat="45.45128" lon="5.91906">
        <ele>1753.83</ele>
        <time>2013-09-22T13:30:29Z</time>
      </trkpt>
      <trkpt lat="45.45139" lon="5.91885">
        <ele>1745.54</ele>
        <time>2013-09-22T13:31:36Z</time>
      </trkpt>
      <trkpt lat="45.45129" lon="5.91863">
        <ele>1735.8</ele>
        <time>2013-09-22T13:32:55Z</time>
      </trkpt>
      <trkpt lat="45.45111" lon="5.91853">
        <ele>1733.08</ele>
        <time>2013-09-22T13:33:47Z</time>
      </trkpt>
      <trkpt lat="45.45093" lon="5.91844">
        <ele>1732.9</ele>
        <time>2013-09-22T13:33:55Z</time>
      </trkpt>
      <trkpt lat="45.45074" lon="5.91847">
        <ele>1731.28</ele>
        <time>2013-09-22T13:34:08Z</time>
      </trkpt>
      <trkpt lat="45.45056" lon="5.91841">
        <ele>1730.32</ele>
        <time>2013-09-22T13:34:20Z</time>
      </trkpt>
      <trkpt lat="45.45039" lon="5.91831">
        <ele>1729.72</ele>
        <time>2013-09-22T13:34:31Z</time>
      </trkpt>
      <trkpt lat="45.45023" lon="5.9182">
        <ele>1727.61</ele>
        <time>2013-09-22T13:34:53Z</time>
      </trkpt>
      <trkpt lat="45.45014" lon="5.91797">
        <ele>1726.71</ele>
        <time>2013-09-22T13:35:11Z</time>
      </trkpt>
      <trkpt lat="45.45002" lon="5.91775">
        <ele>1726.71</ele>
        <time>2013-09-22T13:35:24Z</time>
      </trkpt>
      <trkpt lat="45.44984" lon="5.91777">
        <ele>1723.86</ele>
        <time>2013-09-22T13:36:07Z</time>
      </trkpt>
      <trkpt lat="45.44985" lon="5.91804">
        <ele>1720.68</ele>
        <time>2013-09-22T13:37:07Z</time>
      </trkpt>
      <trkpt lat="45.44967" lon="5.91814">
        <ele>1721.15</ele>
        <time>2013-09-22T13:37:20Z</time>
      </trkpt>
      <trkpt lat="45.4497" lon="5.91788">
        <ele>1713.45</ele>
        <time>2013-09-22T13:37:48Z</time>
      </trkpt>
      <trkpt lat="45.44985" lon="5.91772">
        <ele>1707.09</ele>
        <time>2013-09-22T13:38:04Z</time>
      </trkpt>
      <trkpt lat="45.45003" lon="5.9176">
        <ele>1702.22</ele>
        <time>2013-09-22T13:38:17Z</time>
      </trkpt>
      <trkpt lat="45.44998" lon="5.91735">
        <ele>1692.24</ele>
        <time>2013-09-22T13:45:01Z</time>
      </trkpt>
      <trkpt lat="45.44985" lon="5.91715">
        <ele>1685.18</ele>
        <time>2013-09-22T13:45:53Z</time>
      </trkpt>
      <trkpt lat="45.4497" lon="5.91701">
        <ele>1673.36</ele>
        <time>2013-09-22T13:46:37Z</time>
      </trkpt>
      <trkpt lat="45.44975" lon="5.91676">
        <ele>1662.74</ele>
        <time>2013-09-22T13:47:05Z</time>
      </trkpt>
      <trkpt lat="45.44973" lon="5.9165">
        <ele>1648.91</ele>
        <time>2013-09-22T13:47:58Z</time>
      </trkpt>
      <trkpt lat="45.44986" lon="5.91632">
        <ele>1644.17</ele>
        <time>2013-09-22T13:48:17Z</time>
      </trkpt>
      <trkpt lat="45.4497" lon="5.9162">
        <ele>1639.12</ele>
        <time>2013-09-22T13:48:34Z</time>
      </trkpt>
      <trkpt lat="45.44977" lon="5.91595">
        <ele>1630.25</ele>
        <time>2013-09-22T13:48:57Z</time>
      </trkpt>
      <trkpt lat="45.44991" lon="5.91579">
        <ele>1623.45</ele>
        <time>2013-09-22T13:49:17Z</time>
      </trkpt>
      <trkpt lat="45.45" lon="5.91556">
        <ele>1606.57</ele>
        <time>2013-09-22T13:50:10Z</time>
      </trkpt>
      <trkpt lat="45.45006" lon="5.91531">
        <ele>1598.96</ele>
        <time>2013-09-22T13:50:40Z</time>
      </trkpt>
      <trkpt lat="45.45011" lon="5.91507">
        <ele>1592.7</ele>
        <time>2013-09-22T13:51:08Z</time>
      </trkpt>
      <trkpt lat="45.45023" lon="5.91486">
        <ele>1586.03</ele>
        <time>2013-09-22T13:51:32Z</time>
      </trkpt>
      <trkpt lat="45.45034" lon="5.91465">
        <ele>1574.54</ele>
        <time>2013-09-22T13:52:11Z</time>
      </trkpt>
      <trkpt lat="45.45038" lon="5.9144">
        <ele>1564.28</ele>
        <time>2013-09-22T13:52:43Z</time>
      </trkpt>
      <trkpt lat="45.45053" lon="5.91425">
        <ele>1553.44</ele>
        <time>2013-09-22T13:53:22Z</time>
      </trkpt>
      <trkpt lat="45.45066" lon="5.91406">
        <ele>1542.23</ele>
        <time>2013-09-22T13:53:59Z</time>
      </trkpt>
      <trkpt lat="45.45078" lon="5.91386">
        <ele>1528.81</ele>
        <time>2013-09-22T13:54:39Z</time>
      </trkpt>
      <trkpt lat="45.45088" lon="5.91365">
        <ele>1520.91</ele>
        <time>2013-09-22T13:55:07Z</time>
      </trkpt>
      <trkpt lat="45.45093" lon="5.9134">
        <ele>1509.65</ele>
        <time>2013-09-22T13:55:45Z</time>
      </trkpt>
      <trkpt lat="45.45103" lon="5.91319">
        <ele>1505.76</ele>
        <time>2013-09-22T13:56:04Z</time>
      </trkpt>
      <trkpt lat="45.45122" lon="5.91318">
        <ele>1499.67</ele>
        <time>2013-09-22T13:56:23Z</time>
      </trkpt>
      <trkpt lat="45.45141" lon="5.91319">
        <ele>1493.35</ele>
        <time>2013-09-22T13:56:43Z</time>
      </trkpt>
      <trkpt lat="45.45158" lon="5.91311">
        <ele>1479.91</ele>
        <time>2013-09-22T13:57:22Z</time>
      </trkpt>
      <trkpt lat="45.45176" lon="5.91308">
        <ele>1472.46</ele>
        <time>2013-09-22T13:57:47Z</time>
      </trkpt>
      <trkpt lat="45.4519" lon="5.91291">
        <ele>1465.76</ele>
        <time>2013-09-22T13:58:19Z</time>
      </trkpt>
      <trkpt lat="45.45208" lon="5.91299">
        <ele>1457.2</ele>
        <time>2013-09-22T13:58:44Z</time>
      </trkpt>
      <trkpt lat="45.45215" lon="5.91275">
        <ele>1449.64</ele>
        <time>2013-09-22T13:59:18Z</time>
      </trkpt>
      <trkpt lat="45.45213" lon="5.91249">
        <ele>1444.57</ele>
        <time>2013-09-22T13:59:35Z</time>
      </trkpt>
      <trkpt lat="45.45206" lon="5.91225">
        <ele>1438.69</ele>
        <time>2013-09-22T13:59:53Z</time>
      </trkpt>
      <trkpt lat="45.45191" lon="5.91208">
        <ele>1433.57</ele>
        <time>2013-09-22T14:00:10Z</time>
      </trkpt>
      <trkpt lat="45.45178" lon="5.91188">
        <ele>1428.79</ele>
        <time>2013-09-22T14:00:28Z</time>
      </trkpt>
      <trkpt lat="45.45172" lon="5.91163">
        <ele>1424.86</ele>
        <time>2013-09-22T14:00:45Z</time>
      </trkpt>
      <trkpt lat="45.4516" lon="5.91141">
        <ele>1420.09</ele>
        <time>2013-09-22T14:01:00Z</time>
      </trkpt>
      <trkpt lat="45.45153" lon="5.91116">
        <ele>1417.03</ele>
        <time>2013-09-22T14:01:13Z</time>
      </trkpt>
      <trkpt lat="45.45141" lon="5.91096">
        <ele>1411.35</ele>
        <time>2013-09-22T14:01:31Z</time>
      </trkpt>
      <trkpt lat="45.45128" lon="5.91077">
        <ele>1405.6</ele>
        <time>2013-09-22T14:01:46Z</time>
      </trkpt>
      <trkpt lat="45.45124" lon="5.91052">
        <ele>1398.27</ele>
        <time>2013-09-22T14:02:09Z</time>
      </trkpt>
      <trkpt lat="45.45114" lon="5.91028">
        <ele>1391.47</ele>
        <time>2013-09-22T14:02:25Z</time>
      </trkpt>
      <trkpt lat="45.45099" lon="5.91013">
        <ele>1383.22</ele>
        <time>2013-09-22T14:02:40Z</time>
      </trkpt>
      <trkpt lat="45.45089" lon="5.9099">
        <ele>1377.93</ele>
        <time>2013-09-22T14:02:51Z</time>
      </trkpt>
      <trkpt lat="45.45074" lon="5.90976">
        <ele>1373.67</ele>
        <time>2013-09-22T14:03:02Z</time>
      </trkpt>
      <trkpt lat="45.45057" lon="5.90963">
        <ele>1368.07</ele>
        <time>2013-09-22T14:03:16Z</time>
      </trkpt>
      <trkpt lat="45.4504" lon="5.9095">
        <ele>1363.59</ele>
        <time>2013-09-22T14:03:28Z</time>
      </trkpt>
      <trkpt lat="45.45021" lon="5.9095">
        <ele>1360.87</ele>
        <time>2013-09-22T14:03:40Z</time>
      </trkpt>
      <trkpt lat="45.45003" lon="5.90944">
        <ele>1357.93</ele>
        <time>2013-09-22T14:03:56Z</time>
      </trkpt>
      <trkpt lat="45.44984" lon="5.90945">
        <ele>1354.59</ele>
        <time>2013-09-22T14:04:16Z</time>
      </trkpt>
      <trkpt lat="45.44966" lon="5.90944">
        <ele>1345.96</ele>
        <time>2013-09-22T14:04:42Z</time>
      </trkpt>
      <trkpt lat="45.44948" lon="5.90942">
        <ele>1337.43</ele>
        <time>2013-09-22T14:05:06Z</time>
      </trkpt>
      <trkpt lat="45.4493" lon="5.90932">
        <ele>1331.23</ele>
        <time>2013-09-22T14:05:23Z</time>
      </trkpt>
      <trkpt lat="45.44913" lon="5.90925">
        <ele>1325.63</ele>
        <time>2013-09-22T14:05:39Z</time>
      </trkpt>
      <trkpt lat="45.44895" lon="5.9092">
        <ele>1320.34</ele>
        <time>2013-09-22T14:05:52Z</time>
      </trkpt>
      <trkpt lat="45.44876" lon="5.90912">
        <ele>1311.39</ele>
        <time>2013-09-22T14:06:12Z</time>
      </trkpt>
      <trkpt lat="45.44859" lon="5.90902">
        <ele>1304.99</ele>
        <time>2013-09-22T14:06:26Z</time>
      </trkpt>
      <trkpt lat="45.44842" lon="5.90893">
        <ele>1300.22</ele>
        <time>2013-09-22T14:06:37Z</time>
      </trkpt>
      <trkpt lat="45.44824" lon="5.90884">
        <ele>1295.96</ele>
        <time>2013-09-22T14:06:51Z</time>
      </trkpt>
      <trkpt lat="45.44807" lon="5.90878">
        <ele>1292.44</ele>
        <time>2013-09-22T14:07:12Z</time>
      </trkpt>
      <trkpt lat="45.44788" lon="5.90876">
        <ele>1289.24</ele>
        <time>2013-09-22T14:07:30Z</time>
      </trkpt>
      <trkpt lat="45.44771" lon="5.90865">
        <ele>1285.93</ele>
        <time>2013-09-22T14:07:46Z</time>
      </trkpt>
      <trkpt lat="45.44756" lon="5.90849">
        <ele>1281.28</ele>
        <time>2013-09-22T14:08:05Z</time>
      </trkpt>
      <trkpt lat="45.44749" lon="5.90824">
        <ele>1275.68</ele>
        <time>2013-09-22T14:08:22Z</time>
      </trkpt>
      <trkpt lat="45.44748" lon="5.90798">
        <ele>1269.69</ele>
        <time>2013-09-22T14:08:39Z</time>
      </trkpt>
      <trkpt lat="45.4474" lon="5.90773">
        <ele>1262.66</ele>
        <time>2013-09-22T14:08:57Z</time>
      </trkpt>
      <trkpt lat="45.44735" lon="5.90748">
        <ele>1257.63</ele>
        <time>2013-09-22T14:09:09Z</time>
      </trkpt>
      <trkpt lat="45.44734" lon="5.90721">
        <ele>1252.88</ele>
        <time>2013-09-22T14:09:23Z</time>
      </trkpt>
      <trkpt lat="45.44735" lon="5.90695">
        <ele>1249.2</ele>
        <time>2013-09-22T14:09:39Z</time>
      </trkpt>
      <trkpt lat="45.44739" lon="5.90668">
        <ele>1245.88</ele>
        <time>2013-09-22T14:09:52Z</time>
      </trkpt>
      <trkpt lat="45.44742" lon="5.90643">
        <ele>1242.45</ele>
        <time>2013-09-22T14:10:05Z</time>
      </trkpt>
      <trkpt lat="45.44744" lon="5.90617">
        <ele>1238.67</ele>
        <time>2013-09-22T14:10:19Z</time>
      </trkpt>
      <trkpt lat="45.44746" lon="5.9059">
        <ele>1235.34</ele>
        <time>2013-09-22T14:10:34Z</time>
      </trkpt>
      <trkpt lat="45.4475" lon="5.90563">
        <ele>1232.29</ele>
        <time>2013-09-22T14:10:51Z</time>
      </trkpt>
      <trkpt lat="45.44754" lon="5.90537">
        <ele>1228.86</ele>
        <time>2013-09-22T14:11:08Z</time>
      </trkpt>
      <trkpt lat="45.44763" lon="5.90513">
        <ele>1225.17</ele>
        <time>2013-09-22T14:11:24Z</time>
      </trkpt>
      <trkpt lat="45.44775" lon="5.90494">
        <ele>1222.34</ele>
        <time>2013-09-22T14:11:37Z</time>
      </trkpt>
      <trkpt lat="45.44758" lon="5.90485">
        <ele>1213.56</ele>
        <time>2013-09-22T14:12:12Z</time>
      </trkpt>
      <trkpt lat="45.44739" lon="5.90487">
        <ele>1206.77</ele>
        <time>2013-09-22T14:12:43Z</time>
      </trkpt>
      <trkpt lat="45.4472" lon="5.90492">
        <ele>1203.15</ele>
        <time>2013-09-22T14:12:59Z</time>
      </trkpt>
      <trkpt lat="45.44702" lon="5.90493">
        <ele>1200.81</ele>
        <time>2013-09-22T14:13:12Z</time>
      </trkpt>
      <trkpt lat="45.44683" lon="5.90494">
        <ele>1198.57</ele>
        <time>2013-09-22T14:13:30Z</time>
      </trkpt>
      <trkpt lat="45.44669" lon="5.9051">
        <ele>1196.06</ele>
        <time>2013-09-22T14:13:44Z</time>
      </trkpt>
      <trkpt lat="45.44668" lon="5.90536">
        <ele>1192.69</ele>
        <time>2013-09-22T14:13:59Z</time>
      </trkpt>
      <trkpt lat="45.44664" lon="5.90562">
        <ele>1188.95</ele>
        <time>2013-09-22T14:14:16Z</time>
      </trkpt>
      <trkpt lat="45.44655" lon="5.90588">
        <ele>1183.29</ele>
        <time>2013-09-22T14:14:44Z</time>
      </trkpt>
      <trkpt lat="45.44643" lon="5.90608">
        <ele>1182.35</ele>
        <time>2013-09-22T14:14:51Z</time>
      </trkpt>
      <trkpt lat="45.44626" lon="5.90622">
        <ele>1180.32</ele>
        <time>2013-09-22T14:15:00Z</time>
      </trkpt>
      <trkpt lat="45.44608" lon="5.9063">
        <ele>1177.49</ele>
        <time>2013-09-22T14:15:15Z</time>
      </trkpt>
      <trkpt lat="45.44591" lon="5.90643">
        <ele>1174.59</ele>
        <time>2013-09-22T14:15:29Z</time>
      </trkpt>
      <trkpt lat="45.44583" lon="5.90619">
        <ele>1168.85</ele>
        <time>2013-09-22T14:15:46Z</time>
      </trkpt>
      <trkpt lat="45.44568" lon="5.90635">
        <ele>1161.72</ele>
        <time>2013-09-22T14:16:09Z</time>
      </trkpt>
      <trkpt lat="45.44561" lon="5.90659">
        <ele>1156.81</ele>
        <time>2013-09-22T14:16:28Z</time>
      </trkpt>
      <trkpt lat="45.44546" lon="5.90673">
        <ele>1150.94</ele>
        <time>2013-09-22T14:16:46Z</time>
      </trkpt>
      <trkpt lat="45.4453" lon="5.90689">
        <ele>1148.06</ele>
        <time>2013-09-22T14:17:01Z</time>
      </trkpt>
      <trkpt lat="45.44513" lon="5.90701">
        <ele>1145.24</ele>
        <time>2013-09-22T14:17:18Z</time>
      </trkpt>
      <trkpt lat="45.445" lon="5.90721">
        <ele>1141.73</ele>
        <time>2013-09-22T14:17:35Z</time>
      </trkpt>
      <trkpt lat="45.44486" lon="5.90739">
        <ele>1138.96</ele>
        <time>2013-09-22T14:17:51Z</time>
      </trkpt>
      <trkpt lat="45.4447" lon="5.90751">
        <ele>1135.43</ele>
        <time>2013-09-22T14:18:05Z</time>
      </trkpt>
      <trkpt lat="45.44453" lon="5.90758">
        <ele>1131.76</ele>
        <time>2013-09-22T14:18:21Z</time>
      </trkpt>
      <trkpt lat="45.44435" lon="5.90769">
        <ele>1127.55</ele>
        <time>2013-09-22T14:18:36Z</time>
      </trkpt>
      <trkpt lat="45.44418" lon="5.90776">
        <ele>1123.85</ele>
        <time>2013-09-22T14:18:51Z</time>
      </trkpt>
      <trkpt lat="45.44416" lon="5.9075">
        <ele>1120.32</ele>
        <time>2013-09-22T14:19:08Z</time>
      </trkpt>
      <trkpt lat="45.44421" lon="5.90725">
        <ele>1112.64</ele>
        <time>2013-09-22T14:21:03Z</time>
      </trkpt>
      <trkpt lat="45.44409" lon="5.90705">
        <ele>1110.41</ele>
        <time>2013-09-22T14:21:18Z</time>
      </trkpt>
      <trkpt lat="45.44391" lon="5.90696">
        <ele>1107.71</ele>
        <time>2013-09-22T14:21:35Z</time>
      </trkpt>
      <trkpt lat="45.44373" lon="5.9069">
        <ele>1106.47</ele>
        <time>2013-09-22T14:21:49Z</time>
      </trkpt>
      <trkpt lat="45.44359" lon="5.9067">
        <ele>1105.85</ele>
        <time>2013-09-22T14:22:04Z</time>
      </trkpt>
      <trkpt lat="45.44342" lon="5.90663">
        <ele>1104.61</ele>
        <time>2013-09-22T14:22:18Z</time>
      </trkpt>
      <trkpt lat="45.44327" lon="5.90645">
        <ele>1103.23</ele>
        <time>2013-09-22T14:22:31Z</time>
      </trkpt>
      <trkpt lat="45.4431" lon="5.90635">
        <ele>1101.38</ele>
        <time>2013-09-22T14:22:45Z</time>
      </trkpt>
      <trkpt lat="45.44296" lon="5.90619">
        <ele>1099.92</ele>
        <time>2013-09-22T14:22:59Z</time>
      </trkpt>
      <trkpt lat="45.44279" lon="5.90608">
        <ele>1097.93</ele>
        <time>2013-09-22T14:23:13Z</time>
      </trkpt>
      <trkpt lat="45.44262" lon="5.90598">
        <ele>1096.02</ele>
        <time>2013-09-22T14:23:28Z</time>
      </trkpt>
      <trkpt lat="45.44246" lon="5.90585">
        <ele>1093.89</ele>
        <time>2013-09-22T14:23:43Z</time>
      </trkpt>
      <trkpt lat="45.44232" lon="5.90568">
        <ele>1091.72</ele>
        <time>2013-09-22T14:23:57Z</time>
      </trkpt>
    </trkseg>
  </trk>
</gpx>